Wetterdaten: Dienstag, 05.05.2015
Datum Zeit Temp. Aussen +5cm Feuchte Auss Luftdruck Regen Sonnenschein Regendauer Solar Windben
05.05.2015 00:00 15,6 C 13,3 C 90 % 999,9 hPa 0,0 l/m 0 min 0 min 0 W/m 16,7 km/h (3 Bft)
05.05.2015 00:02 15,6 C 13,3 C 91 % 999,8 hPa 0,0 l/m 0 min 0 min 0 W/m 20,9 km/h (4 Bft)
05.05.2015 00:06 15,4 C 13,3 C 91 % 999,7 hPa 0,0 l/m 0 min 2 min 0 W/m 23,0 km/h (4 Bft)
05.05.2015 00:08 15,4 C 13,3 C 91 % 999,7 hPa 0,0 l/m 0 min 2 min 0 W/m 23,0 km/h (4 Bft)
05.05.2015 00:10 15,4 C 12,8 C 91 % 999,7 hPa 0,0 l/m 0 min 2 min 0 W/m 20,9 km/h (4 Bft)
05.05.2015 00:12 15,3 C 12,8 C 91 % 999,6 hPa 0,0 l/m 0 min 2 min 0 W/m 31,4 km/h (5 Bft)
05.05.2015 00:14 15,3 C 12,8 C 92 % 999,6 hPa 0,0 l/m 0 min 2 min 0 W/m 29,3 km/h (5 Bft)
05.05.2015 00:16 15,3 C 12,8 C 92 % 999,6 hPa 0,0 l/m 0 min 2 min 0 W/m 27,2 km/h (4 Bft)
05.05.2015 00:18 15,3 C 12,8 C 92 % 999,5 hPa 0,0 l/m 0 min 2 min 0 W/m 20,9 km/h (4 Bft)
05.05.2015 00:20 15,2 C 13,3 C 92 % 999,5 hPa 0,2 l/m 0 min 2 min 0 W/m 23,0 km/h (4 Bft)
05.05.2015 00:22 15,2 C 13,3 C 92 % 999,4 hPa 0,0 l/m 0 min 2 min 0 W/m 18,8 km/h (3 Bft)
05.05.2015 00:24 15,2 C 13,3 C 92 % 999,3 hPa 0,0 l/m 0 min 2 min 0 W/m 20,9 km/h (4 Bft)
05.05.2015 00:26 15,2 C 13,3 C 93 % 999,3 hPa 0,0 l/m 0 min 2 min 0 W/m 16,7 km/h (3 Bft)
05.05.2015 00:28 15,2 C 13,3 C 93 % 999,3 hPa 0,2 l/m 0 min 2 min 0 W/m 29,3 km/h (5 Bft)
05.05.2015 00:30 15,2 C 13,3 C 93 % 999,3 hPa 0,0 l/m 0 min 2 min 0 W/m 16,7 km/h (3 Bft)
05.05.2015 00:32 15,2 C 13,3 C 93 % 999,2 hPa 0,0 l/m 0 min 2 min 0 W/m 14,6 km/h (3 Bft)
05.05.2015 00:34 15,2 C 13,3 C 93 % 999,1 hPa 0,2 l/m 0 min 2 min 0 W/m 16,7 km/h (3 Bft)
05.05.2015 00:36 15,2 C 13,3 C 93 % 999,1 hPa 0,0 l/m 0 min 2 min 0 W/m 18,8 km/h (3 Bft)
05.05.2015 00:38 15,2 C 13,3 C 93 % 999,0 hPa 0,2 l/m 0 min 2 min 0 W/m 16,7 km/h (3 Bft)
05.05.2015 00:40 15,2 C 13,3 C 94 % 999,0 hPa 0,0 l/m 0 min 2 min 0 W/m 16,7 km/h (3 Bft)
05.05.2015 00:42 15,2 C 13,3 C 94 % 999,0 hPa 0,0 l/m 0 min 2 min 0 W/m 23,0 km/h (4 Bft)
05.05.2015 00:44 15,2 C 13,3 C 94 % 999,0 hPa 0,0 l/m 0 min 2 min 0 W/m 27,2 km/h (4 Bft)
05.05.2015 00:46 15,1 C 13,3 C 94 % 999,0 hPa 0,0 l/m 0 min 2 min 0 W/m 18,8 km/h (3 Bft)
05.05.2015 00:48 15,1 C 13,3 C 94 % 999,0 hPa 0,0 l/m 0 min 2 min 0 W/m 29,3 km/h (5 Bft)
05.05.2015 00:50 15,1 C 13,3 C 94 % 999,0 hPa 0,2 l/m 0 min 2 min 0 W/m 29,3 km/h (5 Bft)
05.05.2015 00:52 15,1 C 13,3 C 94 % 998,8 hPa 0,0 l/m 0 min 2 min 0 W/m 18,8 km/h (3 Bft)
05.05.2015 00:54 15,1 C 13,3 C 94 % 998,8 hPa 0,0 l/m 0 min 2 min 0 W/m 23,0 km/h (4 Bft)
05.05.2015 00:56 15,1 C 13,3 C 94 % 998,7 hPa 0,2 l/m 0 min 2 min 0 W/m 16,7 km/h (3 Bft)
05.05.2015 00:58 15,1 C 13,3 C 94 % 998,7 hPa 0,0 l/m 0 min 2 min 0 W/m 14,6 km/h (3 Bft)
05.05.2015 01:00 15,1 C 13,3 C 94 % 998,6 hPa 0,0 l/m 0 min 2 min 0 W/m 14,6 km/h (3 Bft)
05.05.2015 01:02 15,1 C 13,3 C 94 % 998,6 hPa 0,0 l/m 0 min 2 min 0 W/m 31,4 km/h (5 Bft)
05.05.2015 01:04 15,1 C 13,3 C 94 % 998,5 hPa 0,0 l/m 0 min 2 min 0 W/m 20,9 km/h (4 Bft)
05.05.2015 01:06 15,1 C 13,3 C 95 % 998,4 hPa 0,0 l/m 0 min 2 min 0 W/m 29,3 km/h (5 Bft)
05.05.2015 01:08 15,1 C 13,3 C 95 % 998,4 hPa 0,0 l/m 0 min 2 min 0 W/m 23,0 km/h (4 Bft)
05.05.2015 01:10 15,0 C 13,3 C 95 % 998,3 hPa 0,0 l/m 0 min 2 min 0 W/m 25,1 km/h (4 Bft)
05.05.2015 01:12 15,0 C 13,3 C 95 % 998,1 hPa 0,0 l/m 0 min 2 min 0 W/m 18,8 km/h (3 Bft)
05.05.2015 01:14 15,0 C 13,3 C 95 % 998,0 hPa 0,0 l/m 0 min 2 min 0 W/m 27,2 km/h (4 Bft)
05.05.2015 01:16 15,0 C 13,3 C 95 % 998,0 hPa 0,0 l/m 0 min 2 min 0 W/m 18,8 km/h (3 Bft)
05.05.2015 01:18 15,0 C 13,3 C 95 % 998,0 hPa 0,2 l/m 0 min 2 min 0 W/m 31,4 km/h (5 Bft)
05.05.2015 01:20 15,0 C 13,3 C 95 % 997,9 hPa 0,0 l/m 0 min 2 min 0 W/m 29,3 km/h (5 Bft)
05.05.2015 01:22 15,0 C 13,3 C 95 % 997,8 hPa 0,0 l/m 0 min 2 min 0 W/m 20,9 km/h (4 Bft)
05.05.2015 01:24 15,0 C 13,3 C 95 % 997,7 hPa 0,0 l/m 0 min 2 min 0 W/m 20,9 km/h (4 Bft)
05.05.2015 01:26 15,0 C 13,3 C 95 % 997,7 hPa 0,0 l/m 0 min 2 min 0 W/m 27,2 km/h (4 Bft)
05.05.2015 01:28 15,0 C 13,3 C 95 % 997,6 hPa 0,0 l/m 0 min 2 min 0 W/m 29,3 km/h (5 Bft)
05.05.2015 01:30 15,0 C 13,3 C 95 % 997,5 hPa 0,0 l/m 0 min 2 min 0 W/m 27,2 km/h (4 Bft)
05.05.2015 01:32 14,9 C 13,3 C 95 % 997,6 hPa 0,0 l/m 0 min 2 min 0 W/m 29,3 km/h (5 Bft)
05.05.2015 01:34 14,9 C 13,3 C 95 % 997,5 hPa 0,2 l/m 0 min 2 min 0 W/m 27,2 km/h (4 Bft)
05.05.2015 01:36 14,9 C 13,3 C 95 % 997,5 hPa 0,0 l/m 0 min 2 min 0 W/m 33,5 km/h (5 Bft)
05.05.2015 01:38 14,9 C 13,3 C 95 % 997,3 hPa 0,0 l/m 0 min 2 min 0 W/m 23,0 km/h (4 Bft)
05.05.2015 01:40 14,9 C 13,3 C 95 % 997,3 hPa 0,0 l/m 0 min 2 min 0 W/m 27,2 km/h (4 Bft)
05.05.2015 01:42 14,9 C 13,3 C 95 % 997,3 hPa 0,0 l/m 0 min 2 min 0 W/m 23,0 km/h (4 Bft)
05.05.2015 01:44 14,9 C 13,3 C 95 % 997,3 hPa 0,0 l/m 0 min 2 min 0 W/m 23,0 km/h (4 Bft)
05.05.2015 01:46 14,9 C 13,3 C 95 % 997,2 hPa 0,0 l/m 0 min 2 min 0 W/m 14,6 km/h (3 Bft)
05.05.2015 01:48 14,9 C 13,3 C 96 % 997,3 hPa 0,0 l/m 0 min 2 min 0 W/m 23,0 km/h (4 Bft)
05.05.2015 01:50 14,9 C 13,3 C 96 % 997,3 hPa 0,0 l/m 0 min 2 min 0 W/m 20,9 km/h (4 Bft)
05.05.2015 01:52 14,9 C 13,3 C 96 % 997,3 hPa 0,0 l/m 0 min 0 min 0 W/m 16,7 km/h (3 Bft)
05.05.2015 01:54 14,9 C 13,3 C 96 % 997,5 hPa 0,0 l/m 0 min 2 min 0 W/m 16,7 km/h (3 Bft)
05.05.2015 01:56 14,9 C 13,3 C 96 % 997,5 hPa 0,2 l/m 0 min 2 min 0 W/m 27,2 km/h (4 Bft)
05.05.2015 01:58 14,9 C 13,3 C 96 % 997,5 hPa 0,2 l/m 0 min 2 min 0 W/m 27,2 km/h (4 Bft)
05.05.2015 02:00 14,9 C 13,3 C 96 % 997,4 hPa 0,0 l/m 0 min 2 min 0 W/m 25,1 km/h (4 Bft)
05.05.2015 02:02 14,9 C 13,3 C 96 % 997,4 hPa 0,0 l/m 0 min 2 min 0 W/m 23,0 km/h (4 Bft)
05.05.2015 02:04 15,0 C 13,3 C 96 % 997,3 hPa 0,0 l/m 0 min 2 min 0 W/m 20,9 km/h (4 Bft)
05.05.2015 02:06 14,9 C 13,3 C 96 % 997,2 hPa 0,0 l/m 0 min 2 min 0 W/m 20,9 km/h (4 Bft)
05.05.2015 02:08 14,9 C 13,3 C 96 % 997,3 hPa 0,0 l/m 0 min 2 min 0 W/m 18,8 km/h (3 Bft)
05.05.2015 02:10 14,9 C 13,3 C 96 % 997,3 hPa 0,2 l/m 0 min 2 min 0 W/m 18,8 km/h (3 Bft)
05.05.2015 02:12 14,9 C 13,3 C 96 % 997,3 hPa 0,0 l/m 0 min 2 min 0 W/m 18,8 km/h (3 Bft)
05.05.2015 02:14 14,9 C 13,3 C 96 % 997,4 hPa 0,0 l/m 0 min 2 min 0 W/m 16,7 km/h (3 Bft)
05.05.2015 02:16 14,9 C 13,3 C 96 % 997,4 hPa 0,2 l/m 0 min 2 min 0 W/m 23,0 km/h (4 Bft)
05.05.2015 02:18 15,0 C 13,3 C 96 % 997,1 hPa 0,0 l/m 0 min 2 min 0 W/m 25,1 km/h (4 Bft)
05.05.2015 02:20 14,9 C 13,3 C 96 % 997,0 hPa 0,2 l/m 0 min 2 min 0 W/m 20,9 km/h (4 Bft)
05.05.2015 02:22 15,0 C 13,3 C 96 % 996,9 hPa 0,2 l/m 0 min 2 min 0 W/m 18,8 km/h (3 Bft)
05.05.2015 02:24 15,0 C 13,3 C 96 % 996,8 hPa 0,0 l/m 0 min 2 min 0 W/m 20,9 km/h (4 Bft)
05.05.2015 02:26 15,0 C 13,3 C 96 % 996,9 hPa 0,0 l/m 0 min 0 min 0 W/m 27,2 km/h (4 Bft)
05.05.2015 02:28 15,0 C 13,3 C 96 % 996,8 hPa 0,0 l/m 0 min 0 min 0 W/m 27,2 km/h (4 Bft)
05.05.2015 02:30 15,0 C 13,3 C 96 % 996,8 hPa 0,0 l/m 0 min 0 min 0 W/m 25,1 km/h (4 Bft)
05.05.2015 02:32 15,0 C 13,3 C 96 % 996,7 hPa 0,0 l/m 0 min 0 min 0 W/m 23,0 km/h (4 Bft)
05.05.2015 02:34 15,0 C 13,3 C 96 % 996,6 hPa 0,0 l/m 0 min 0 min 0 W/m 23,0 km/h (4 Bft)
05.05.2015 02:36 15,0 C 13,3 C 96 % 996,6 hPa 0,0 l/m 0 min 0 min 0 W/m 20,9 km/h (4 Bft)
05.05.2015 02:38 15,0 C 13,3 C 96 % 996,6 hPa 0,0 l/m 0 min 0 min 0 W/m 20,9 km/h (4 Bft)
05.05.2015 02:40 15,0 C 13,3 C 96 % 996,6 hPa 0,0 l/m 0 min 0 min 0 W/m 16,7 km/h (3 Bft)
05.05.2015 02:42 15,0 C 13,3 C 96 % 996,4 hPa 0,0 l/m 0 min 0 min 0 W/m 18,8 km/h (3 Bft)
05.05.2015 02:44 15,1 C 13,3 C 96 % 996,4 hPa 0,0 l/m 0 min 0 min 0 W/m 18,8 km/h (3 Bft)
05.05.2015 02:46 15,0 C 12,8 C 96 % 996,3 hPa 0,0 l/m 0 min 0 min 0 W/m 18,8 km/h (3 Bft)
05.05.2015 02:48 15,0 C 12,8 C 96 % 996,3 hPa 0,0 l/m 0 min 0 min 0 W/m 25,1 km/h (4 Bft)
05.05.2015 02:50 15,0 C 12,8 C 96 % 996,3 hPa 0,0 l/m 0 min 0 min 0 W/m 18,8 km/h (3 Bft)
05.05.2015 02:52 15,0 C 12,8 C 96 % 996,3 hPa 0,0 l/m 0 min 0 min 0 W/m 16,7 km/h (3 Bft)
05.05.2015 02:54 14,9 C 12,8 C 96 % 996,3 hPa 0,0 l/m 0 min 0 min 0 W/m 18,8 km/h (3 Bft)
05.05.2015 02:56 14,9 C 12,8 C 96 % 996,3 hPa 0,0 l/m 0 min 0 min 0 W/m 20,9 km/h (4 Bft)
05.05.2015 02:58 14,9 C 12,8 C 96 % 996,2 hPa 0,0 l/m 0 min 0 min 0 W/m 18,8 km/h (3 Bft)
05.05.2015 03:00 14,9 C 12,8 C 96 % 996,2 hPa 0,0 l/m 0 min 0 min 0 W/m 18,8 km/h (3 Bft)
05.05.2015 03:02 14,9 C 12,8 C 96 % 996,2 hPa 0,0 l/m 0 min 0 min 0 W/m 20,9 km/h (4 Bft)
05.05.2015 03:04 14,9 C 12,8 C 96 % 996,2 hPa 0,0 l/m 0 min 0 min 0 W/m 23,0 km/h (4 Bft)
05.05.2015 03:06 14,9 C 12,8 C 96 % 996,2 hPa 0,0 l/m 0 min 0 min 0 W/m 18,8 km/h (3 Bft)
05.05.2015 03:08 14,9 C 12,8 C 96 % 996,2 hPa 0,0 l/m 0 min 0 min 0 W/m 23,0 km/h (4 Bft)
05.05.2015 03:10 14,9 C 12,8 C 96 % 996,1 hPa 0,0 l/m 0 min 0 min 0 W/m 25,1 km/h (4 Bft)
05.05.2015 03:12 14,9 C 12,8 C 96 % 996,2 hPa 0,0 l/m 0 min 0 min 0 W/m 25,1 km/h (4 Bft)
05.05.2015 03:14 14,9 C 12,8 C 96 % 996,1 hPa 0,0 l/m 0 min 0 min 0 W/m 20,9 km/h (4 Bft)
05.05.2015 03:16 14,8 C 12,8 C 96 % 996,2 hPa 0,0 l/m 0 min 0 min 0 W/m 12,6 km/h (3 Bft)
05.05.2015 03:18 14,8 C 12,8 C 96 % 996,1 hPa 0,0 l/m 0 min 0 min 0 W/m 14,6 km/h (3 Bft)
05.05.2015 03:20 14,8 C 12,8 C 96 % 996,2 hPa 0,0 l/m 0 min 0 min 0 W/m 14,6 km/h (3 Bft)
05.05.2015 03:22 14,8 C 12,8 C 96 % 996,1 hPa 0,0 l/m 0 min 0 min 0 W/m 16,7 km/h (3 Bft)
05.05.2015 03:24 14,8 C 12,8 C 96 % 996,1 hPa 0,0 l/m 0 min 0 min 0 W/m 23,0 km/h (4 Bft)
05.05.2015 03:26 14,8 C 12,8 C 96 % 996,1 hPa 0,0 l/m 0 min 0 min 0 W/m 16,7 km/h (3 Bft)
05.05.2015 03:28 14,8 C 12,8 C 96 % 995,9 hPa 0,0 l/m 0 min 0 min 0 W/m 14,6 km/h (3 Bft)
05.05.2015 03:30 14,8 C 12,8 C 96 % 995,9 hPa 0,0 l/m 0 min 0 min 0 W/m 20,9 km/h (4 Bft)
05.05.2015 03:32 14,8 C 12,8 C 96 % 995,9 hPa 0,0 l/m 0 min 0 min 0 W/m 14,6 km/h (3 Bft)
05.05.2015 03:34 14,8 C 12,8 C 96 % 995,9 hPa 0,0 l/m 0 min 0 min 0 W/m 18,8 km/h (3 Bft)
05.05.2015 03:36 14,8 C 12,8 C 96 % 995,9 hPa 0,0 l/m 0 min 0 min 0 W/m 16,7 km/h (3 Bft)
05.05.2015 03:38 14,8 C 12,8 C 96 % 995,8 hPa 0,0 l/m 0 min 0 min 0 W/m 14,6 km/h (3 Bft)
05.05.2015 03:40 14,8 C 12,8 C 96 % 995,8 hPa 0,0 l/m 0 min 0 min 0 W/m 20,9 km/h (4 Bft)
05.05.2015 03:42 14,8 C 12,8 C 96 % 995,8 hPa 0,0 l/m 0 min 0 min 0 W/m 16,7 km/h (3 Bft)
05.05.2015 03:44 14,8 C 12,8 C 96 % 995,7 hPa 0,0 l/m 0 min 0 min 0 W/m 14,6 km/h (3 Bft)
05.05.2015 03:46 14,8 C 12,8 C 96 % 995,8 hPa 0,0 l/m 0 min 0 min 0 W/m 14,6 km/h (3 Bft)
05.05.2015 03:48 14,8 C 12,8 C 96 % 995,8 hPa 0,0 l/m 0 min 0 min 0 W/m 16,7 km/h (3 Bft)
05.05.2015 03:50 14,9 C 12,8 C 96 % 995,8 hPa 0,0 l/m 0 min 0 min 0 W/m 14,6 km/h (3 Bft)
05.05.2015 03:52 14,9 C 12,8 C 96 % 995,8 hPa 0,0 l/m 0 min 0 min 0 W/m 12,6 km/h (3 Bft)
05.05.2015 03:54 14,9 C 12,8 C 96 % 995,8 hPa 0,0 l/m 0 min 0 min 0 W/m 20,9 km/h (4 Bft)
05.05.2015 03:56 14,9 C 12,8 C 96 % 995,8 hPa 0,0 l/m 0 min 0 min 0 W/m 14,6 km/h (3 Bft)
05.05.2015 03:58 14,9 C 12,8 C 96 % 995,8 hPa 0,0 l/m 0 min 0 min 0 W/m 20,9 km/h (4 Bft)
05.05.2015 04:00 14,9 C 12,8 C 96 % 995,7 hPa 0,0 l/m 0 min 0 min 0 W/m 14,6 km/h (3 Bft)
05.05.2015 04:02 14,9 C 12,8 C 96 % 995,8 hPa 0,0 l/m 0 min 0 min 0 W/m 14,6 km/h (3 Bft)
05.05.2015 04:07 14,9 C 12,8 C 96 % 995,8 hPa 0,0 l/m 0 min 0 min 0 W/m 23,0 km/h (4 Bft)
05.05.2015 04:08 14,9 C 12,8 C 96 % 995,8 hPa 0,0 l/m 0 min 0 min 0 W/m 16,7 km/h (3 Bft)
05.05.2015 04:10 14,9 C 12,8 C 96 % 995,8 hPa 0,0 l/m 0 min 0 min 0 W/m 16,7 km/h (3 Bft)
05.05.2015 04:12 15,0 C 12,8 C 96 % 995,9 hPa 0,0 l/m 0 min 0 min 0 W/m 16,7 km/h (3 Bft)
05.05.2015 04:14 15,0 C 12,8 C 96 % 995,8 hPa 0,0 l/m 0 min 0 min 0 W/m 23,0 km/h (4 Bft)
05.05.2015 04:16 15,1 C 12,8 C 97 % 995,8 hPa 0,0 l/m 0 min 0 min 0 W/m 27,2 km/h (4 Bft)
05.05.2015 04:18 15,1 C 12,8 C 97 % 995,7 hPa 0,0 l/m 0 min 0 min 0 W/m 25,1 km/h (4 Bft)
05.05.2015 04:20 15,2 C 12,8 C 97 % 995,7 hPa 0,0 l/m 0 min 0 min 0 W/m 23,0 km/h (4 Bft)
05.05.2015 04:22 15,2 C 12,8 C 97 % 995,7 hPa 0,0 l/m 0 min 0 min 0 W/m 18,8 km/h (3 Bft)
05.05.2015 04:24 15,2 C 12,8 C 97 % 995,7 hPa 0,0 l/m 0 min 0 min 0 W/m 23,0 km/h (4 Bft)
05.05.2015 04:26 15,3 C 12,8 C 97 % 995,6 hPa 0,0 l/m 0 min 0 min 0 W/m 31,4 km/h (5 Bft)
05.05.2015 04:28 15,3 C 12,8 C 97 % 995,6 hPa 0,0 l/m 0 min 0 min 0 W/m 33,5 km/h (5 Bft)
05.05.2015 04:30 15,3 C 12,8 C 97 % 995,6 hPa 0,0 l/m 0 min 0 min 0 W/m 18,8 km/h (3 Bft)
05.05.2015 04:32 15,3 C 12,8 C 97 % 995,5 hPa 0,0 l/m 0 min 0 min 0 W/m 25,1 km/h (4 Bft)
05.05.2015 04:34 15,4 C 12,8 C 97 % 995,5 hPa 0,0 l/m 0 min 0 min 0 W/m 20,9 km/h (4 Bft)
05.05.2015 04:36 15,4 C 12,8 C 97 % 995,5 hPa 0,0 l/m 0 min 0 min 0 W/m 20,9 km/h (4 Bft)
05.05.2015 04:38 15,4 C 12,8 C 97 % 995,5 hPa 0,0 l/m 0 min 0 min 0 W/m 18,8 km/h (3 Bft)
05.05.2015 04:40 15,5 C 12,8 C 97 % 995,4 hPa 0,0 l/m 0 min 0 min 0 W/m 20,9 km/h (4 Bft)
05.05.2015 04:42 15,5 C 12,8 C 97 % 995,5 hPa 0,0 l/m 0 min 0 min 0 W/m 23,0 km/h (4 Bft)
05.05.2015 04:44 15,6 C 13,3 C 97 % 995,5 hPa 0,0 l/m 0 min 0 min 0 W/m 25,1 km/h (4 Bft)
05.05.2015 04:46 15,6 C 13,3 C 96 % 995,4 hPa 0,0 l/m 0 min 0 min 0 W/m 23,0 km/h (4 Bft)
05.05.2015 04:48 15,6 C 13,3 C 96 % 995,5 hPa 0,0 l/m 0 min 0 min 0 W/m 25,1 km/h (4 Bft)
05.05.2015 04:50 15,7 C 13,3 C 96 % 995,4 hPa 0,0 l/m 0 min 0 min 0 W/m 20,9 km/h (4 Bft)
05.05.2015 04:52 15,7 C 13,3 C 96 % 995,5 hPa 0,0 l/m 0 min 0 min 0 W/m 23,0 km/h (4 Bft)
05.05.2015 04:54 15,7 C 13,3 C 96 % 995,3 hPa 0,0 l/m 0 min 0 min 0 W/m 25,1 km/h (4 Bft)
05.05.2015 04:56 15,7 C 13,3 C 96 % 995,3 hPa 0,0 l/m 0 min 0 min 0 W/m 25,1 km/h (4 Bft)
05.05.2015 04:58 15,7 C 13,3 C 96 % 995,4 hPa 0,0 l/m 0 min 0 min 0 W/m 25,1 km/h (4 Bft)
05.05.2015 05:00 15,8 C 13,3 C 96 % 995,4 hPa 0,0 l/m 0 min 0 min 0 W/m 20,9 km/h (4 Bft)
05.05.2015 05:02 15,8 C 13,3 C 96 % 995,3 hPa 0,0 l/m 0 min 0 min 0 W/m 23,0 km/h (4 Bft)
05.05.2015 05:04 15,8 C 13,3 C 96 % 995,3 hPa 0,0 l/m 0 min 0 min 0 W/m 20,9 km/h (4 Bft)
05.05.2015 05:06 15,8 C 13,3 C 96 % 995,2 hPa 0,0 l/m 0 min 0 min 0 W/m 29,3 km/h (5 Bft)
05.05.2015 05:08 15,8 C 13,3 C 96 % 995,3 hPa 0,0 l/m 0 min 0 min 0 W/m 23,0 km/h (4 Bft)
05.05.2015 05:10 15,9 C 13,3 C 95 % 995,2 hPa 0,0 l/m 0 min 0 min 0 W/m 20,9 km/h (4 Bft)
05.05.2015 05:12 15,9 C 13,3 C 95 % 995,2 hPa 0,0 l/m 0 min 0 min 0 W/m 23,0 km/h (4 Bft)
05.05.2015 05:14 15,9 C 13,3 C 95 % 995,3 hPa 0,0 l/m 0 min 0 min 0 W/m 23,0 km/h (4 Bft)
05.05.2015 05:16 15,9 C 13,3 C 95 % 995,4 hPa 0,0 l/m 0 min 0 min 0 W/m 25,1 km/h (4 Bft)
05.05.2015 05:18 15,9 C 13,3 C 95 % 995,4 hPa 0,0 l/m 0 min 0 min 0 W/m 25,1 km/h (4 Bft)
05.05.2015 05:20 15,9 C 13,3 C 95 % 995,3 hPa 0,0 l/m 0 min 0 min 0 W/m 25,1 km/h (4 Bft)
05.05.2015 05:22 16,0 C 13,3 C 95 % 995,3 hPa 0,0 l/m 0 min 0 min 0 W/m 23,0 km/h (4 Bft)
05.05.2015 05:24 16,0 C 13,3 C 95 % 995,3 hPa 0,0 l/m 0 min 0 min 0 W/m 18,8 km/h (3 Bft)
05.05.2015 05:26 16,1 C 13,3 C 95 % 995,3 hPa 0,0 l/m 0 min 0 min 0 W/m 20,9 km/h (4 Bft)
05.05.2015 05:28 16,1 C 13,3 C 94 % 995,3 hPa 0,0 l/m 0 min 0 min 0 W/m 20,9 km/h (4 Bft)
05.05.2015 05:30 16,1 C 13,3 C 94 % 995,2 hPa 0,0 l/m 0 min 0 min 0 W/m 20,9 km/h (4 Bft)
05.05.2015 05:32 16,1 C 13,3 C 94 % 995,3 hPa 0,0 l/m 0 min 0 min 0 W/m 18,8 km/h (3 Bft)
05.05.2015 05:34 16,1 C 13,3 C 94 % 995,3 hPa 0,0 l/m 0 min 0 min 0 W/m 16,7 km/h (3 Bft)
05.05.2015 05:36 16,1 C 13,3 C 94 % 995,3 hPa 0,0 l/m 0 min 0 min 0 W/m 20,9 km/h (4 Bft)
05.05.2015 05:38 16,1 C 13,3 C 94 % 995,3 hPa 0,0 l/m 0 min 0 min 0 W/m 20,9 km/h (4 Bft)
05.05.2015 05:40 16,1 C 13,3 C 93 % 995,2 hPa 0,0 l/m 0 min 0 min 0 W/m 20,9 km/h (4 Bft)
05.05.2015 05:42 16,2 C 13,3 C 93 % 995,2 hPa 0,0 l/m 0 min 0 min 0 W/m 20,9 km/h (4 Bft)
05.05.2015 05:44 16,2 C 13,3 C 93 % 995,3 hPa 0,0 l/m 0 min 0 min 0 W/m 18,8 km/h (3 Bft)
05.05.2015 05:46 16,2 C 13,3 C 93 % 995,3 hPa 0,0 l/m 0 min 0 min 0 W/m 23,0 km/h (4 Bft)
05.05.2015 05:48 16,2 C 13,3 C 93 % 995,3 hPa 0,0 l/m 0 min 0 min 0 W/m 18,8 km/h (3 Bft)
05.05.2015 05:50 16,2 C 13,3 C 93 % 995,5 hPa 0,0 l/m 0 min 0 min 0 W/m 25,1 km/h (4 Bft)
05.05.2015 05:52 16,2 C 13,3 C 93 % 995,4 hPa 0,0 l/m 0 min 0 min 0 W/m 23,0 km/h (4 Bft)
05.05.2015 05:54 16,2 C 13,3 C 93 % 995,5 hPa 0,0 l/m 0 min 0 min 0 W/m 27,2 km/h (4 Bft)
05.05.2015 05:56 16,3 C 13,3 C 93 % 995,5 hPa 0,0 l/m 0 min 0 min 0 W/m 20,9 km/h (4 Bft)
05.05.2015 05:58 16,3 C 13,3 C 93 % 995,5 hPa 0,0 l/m 0 min 0 min 0 W/m 20,9 km/h (4 Bft)
05.05.2015 06:00 16,3 C 13,3 C 93 % 995,5 hPa 0,0 l/m 0 min 0 min 4 W/m 23,0 km/h (4 Bft)
05.05.2015 06:02 16,3 C 13,3 C 93 % 995,5 hPa 0,0 l/m 0 min 0 min 5 W/m 23,0 km/h (4 Bft)
05.05.2015 06:05 16,3 C 13,3 C 92 % 995,6 hPa 0,0 l/m 0 min 0 min 5 W/m 33,5 km/h (5 Bft)
05.05.2015 06:06 16,3 C 13,3 C 92 % 995,6 hPa 0,0 l/m 0 min 0 min 7 W/m 23,0 km/h (4 Bft)
05.05.2015 06:08 16,4 C 13,3 C 92 % 995,5 hPa 0,0 l/m 0 min 0 min 7 W/m 23,0 km/h (4 Bft)
05.05.2015 06:10 16,4 C 13,3 C 92 % 995,6 hPa 0,0 l/m 0 min 0 min 9 W/m 23,0 km/h (4 Bft)
05.05.2015 06:12 16,4 C 13,3 C 92 % 995,8 hPa 0,0 l/m 0 min 0 min 11 W/m 35,6 km/h (5 Bft)
05.05.2015 06:14 16,4 C 13,3 C 92 % 995,9 hPa 0,0 l/m 0 min 0 min 11 W/m 18,8 km/h (3 Bft)
05.05.2015 06:16 16,4 C 13,3 C 92 % 995,8 hPa 0,0 l/m 0 min 0 min 13 W/m 27,2 km/h (4 Bft)
05.05.2015 06:18 16,5 C 13,3 C 92 % 995,8 hPa 0,0 l/m 0 min 0 min 16 W/m 23,0 km/h (4 Bft)
05.05.2015 06:20 16,5 C 13,3 C 92 % 995,9 hPa 0,0 l/m 2 min 0 min 20 W/m 27,2 km/h (4 Bft)
05.05.2015 06:22 16,6 C 13,3 C 92 % 996,2 hPa 0,0 l/m 2 min 0 min 23 W/m 20,9 km/h (4 Bft)
05.05.2015 06:24 16,6 C 13,3 C 92 % 996,1 hPa 0,0 l/m 2 min 0 min 22 W/m 23,0 km/h (4 Bft)
05.05.2015 06:26 16,6 C 13,3 C 92 % 996,1 hPa 0,0 l/m 0 min 0 min 19 W/m 18,8 km/h (3 Bft)
05.05.2015 06:28 16,6 C 13,3 C 91 % 995,9 hPa 0,0 l/m 0 min 0 min 18 W/m 23,0 km/h (4 Bft)
05.05.2015 06:30 16,7 C 13,3 C 91 % 995,9 hPa 0,0 l/m 0 min 0 min 19 W/m 18,8 km/h (3 Bft)
05.05.2015 06:32 16,7 C 13,3 C 91 % 996,0 hPa 0,0 l/m 0 min 0 min 21 W/m 16,7 km/h (3 Bft)
05.05.2015 06:34 16,7 C 13,3 C 91 % 996,2 hPa 0,0 l/m 0 min 0 min 22 W/m 23,0 km/h (4 Bft)
05.05.2015 06:36 16,7 C 13,3 C 91 % 996,2 hPa 0,0 l/m 0 min 0 min 25 W/m 18,8 km/h (3 Bft)
05.05.2015 06:38 16,7 C 13,3 C 91 % 996,2 hPa 0,0 l/m 0 min 0 min 26 W/m 18,8 km/h (3 Bft)
05.05.2015 06:40 16,7 C 13,3 C 91 % 996,2 hPa 0,0 l/m 0 min 0 min 26 W/m 14,6 km/h (3 Bft)
05.05.2015 06:42 16,8 C 13,9 C 91 % 996,2 hPa 0,0 l/m 0 min 0 min 28 W/m 23,0 km/h (4 Bft)
05.05.2015 06:44 16,8 C 13,9 C 91 % 996,2 hPa 0,0 l/m 0 min 0 min 31 W/m 25,1 km/h (4 Bft)
05.05.2015 06:46 16,8 C 13,9 C 91 % 996,2 hPa 0,0 l/m 0 min 0 min 35 W/m 27,2 km/h (4 Bft)
05.05.2015 06:48 16,8 C 13,9 C 91 % 996,2 hPa 0,0 l/m 0 min 0 min 37 W/m 23,0 km/h (4 Bft)
05.05.2015 06:50 16,8 C 13,9 C 91 % 996,2 hPa 0,0 l/m 0 min 0 min 38 W/m 25,1 km/h (4 Bft)
05.05.2015 06:52 16,8 C 13,9 C 91 % 996,3 hPa 0,0 l/m 0 min 0 min 38 W/m 23,0 km/h (4 Bft)
05.05.2015 06:54 16,9 C 13,9 C 91 % 996,1 hPa 0,0 l/m 0 min 0 min 34 W/m 20,9 km/h (4 Bft)
05.05.2015 06:56 16,9 C 13,9 C 91 % 996,0 hPa 0,0 l/m 0 min 0 min 29 W/m 18,8 km/h (3 Bft)
05.05.2015 06:58 16,9 C 13,9 C 90 % 996,1 hPa 0,0 l/m 0 min 0 min 27 W/m 18,8 km/h (3 Bft)
05.05.2015 07:00 16,9 C 13,9 C 90 % 996,0 hPa 0,0 l/m 0 min 0 min 31 W/m 18,8 km/h (3 Bft)
05.05.2015 07:02 16,9 C 13,9 C 90 % 996,0 hPa 0,0 l/m 0 min 0 min 36 W/m 16,7 km/h (3 Bft)
05.05.2015 07:04 16,9 C 13,9 C 90 % 996,0 hPa 0,0 l/m 0 min 0 min 42 W/m 20,9 km/h (4 Bft)
05.05.2015 07:06 17,0 C 13,9 C 90 % 996,0 hPa 0,0 l/m 0 min 0 min 40 W/m 25,1 km/h (4 Bft)
05.05.2015 07:08 17,0 C 13,9 C 90 % 996,0 hPa 0,0 l/m 0 min 0 min 38 W/m 14,6 km/h (3 Bft)
05.05.2015 07:10 17,0 C 13,9 C 90 % 996,0 hPa 0,0 l/m 0 min 0 min 35 W/m 20,9 km/h (4 Bft)
05.05.2015 07:12 17,0 C 13,9 C 90 % 996,1 hPa 0,0 l/m 0 min 0 min 28 W/m 27,2 km/h (4 Bft)
05.05.2015 07:14 17,1 C 13,9 C 90 % 996,1 hPa 0,0 l/m 0 min 0 min 27 W/m 20,9 km/h (4 Bft)
05.05.2015 07:16 17,1 C 13,9 C 90 % 996,2 hPa 0,0 l/m 0 min 0 min 22 W/m 20,9 km/h (4 Bft)
05.05.2015 07:18 17,1 C 13,9 C 90 % 996,3 hPa 0,0 l/m 0 min 0 min 19 W/m 14,6 km/h (3 Bft)
05.05.2015 07:20 17,1 C 13,9 C 90 % 996,3 hPa 0,0 l/m 0 min 0 min 18 W/m 20,9 km/h (4 Bft)
05.05.2015 07:22 17,1 C 13,9 C 90 % 996,3 hPa 0,0 l/m 0 min 0 min 24 W/m 16,7 km/h (3 Bft)
05.05.2015 07:24 17,1 C 13,9 C 90 % 996,2 hPa 0,0 l/m 0 min 0 min 31 W/m 23,0 km/h (4 Bft)
05.05.2015 07:26 17,1 C 13,9 C 90 % 996,2 hPa 0,0 l/m 0 min 0 min 34 W/m 18,8 km/h (3 Bft)
05.05.2015 07:28 17,1 C 13,9 C 90 % 996,1 hPa 0,0 l/m 0 min 0 min 40 W/m 18,8 km/h (3 Bft)
05.05.2015 07:30 17,1 C 13,9 C 90 % 996,0 hPa 0,0 l/m 0 min 0 min 41 W/m 18,8 km/h (3 Bft)
05.05.2015 07:32 17,1 C 13,9 C 90 % 996,1 hPa 0,0 l/m 0 min 0 min 34 W/m 25,1 km/h (4 Bft)
05.05.2015 07:34 17,2 C 13,9 C 90 % 996,2 hPa 0,0 l/m 0 min 0 min 35 W/m 14,6 km/h (3 Bft)
05.05.2015 07:36 17,2 C 13,9 C 90 % 996,2 hPa 0,0 l/m 0 min 0 min 37 W/m 18,8 km/h (3 Bft)
05.05.2015 07:38 17,2 C 13,9 C 90 % 996,2 hPa 0,0 l/m 0 min 0 min 41 W/m 14,6 km/h (3 Bft)
05.05.2015 07:40 17,2 C 13,9 C 90 % 996,3 hPa 0,0 l/m 0 min 0 min 46 W/m 23,0 km/h (4 Bft)
05.05.2015 07:42 17,2 C 13,9 C 90 % 996,4 hPa 0,0 l/m 0 min 0 min 33 W/m 23,0 km/h (4 Bft)
05.05.2015 07:44 17,2 C 13,9 C 90 % 996,5 hPa 0,0 l/m 0 min 0 min 29 W/m 18,8 km/h (3 Bft)
05.05.2015 07:46 17,2 C 13,9 C 90 % 996,8 hPa 0,0 l/m 0 min 0 min 32 W/m 16,7 km/h (3 Bft)
05.05.2015 07:48 17,2 C 13,9 C 90 % 997,0 hPa 0,0 l/m 0 min 2 min 35 W/m 33,5 km/h (5 Bft)
05.05.2015 07:50 17,3 C 13,9 C 90 % 997,0 hPa 0,0 l/m 0 min 2 min 33 W/m 23,0 km/h (4 Bft)
05.05.2015 07:52 17,3 C 13,9 C 90 % 997,0 hPa 0,0 l/m 0 min 2 min 27 W/m 20,9 km/h (4 Bft)
05.05.2015 07:54 17,3 C 13,9 C 90 % 997,0 hPa 0,0 l/m 0 min 2 min 24 W/m 46,0 km/h (6 Bft)
05.05.2015 07:56 17,3 C 13,9 C 90 % 997,1 hPa 0,0 l/m 0 min 2 min 22 W/m 46,0 km/h (6 Bft)
05.05.2015 07:58 17,3 C 13,9 C 90 % 997,1 hPa 0,0 l/m 0 min 2 min 19 W/m 27,2 km/h (4 Bft)
05.05.2015 08:00 17,3 C 13,9 C 90 % 996,9 hPa 0,0 l/m 0 min 2 min 18 W/m 46,0 km/h (6 Bft)
05.05.2015 08:02 17,3 C 13,9 C 90 % 996,7 hPa 0,2 l/m 0 min 2 min 18 W/m 37,7 km/h (5 Bft)
05.05.2015 08:04 17,3 C 13,9 C 90 % 996,6 hPa 0,0 l/m 0 min 2 min 22 W/m 39,7 km/h (6 Bft)
05.05.2015 08:06 17,4 C 13,9 C 90 % 996,5 hPa 0,2 l/m 0 min 2 min 29 W/m 33,5 km/h (5 Bft)
05.05.2015 08:08 17,3 C 13,9 C 90 % 996,4 hPa 0,0 l/m 0 min 2 min 37 W/m 37,7 km/h (5 Bft)
05.05.2015 08:10 17,3 C 13,9 C 91 % 996,2 hPa 0,0 l/m 0 min 2 min 46 W/m 33,5 km/h (5 Bft)
05.05.2015 08:12 17,3 C 13,9 C 91 % 996,1 hPa 0,0 l/m 0 min 2 min 55 W/m 33,5 km/h (5 Bft)
05.05.2015 08:14 17,3 C 13,9 C 91 % 996,2 hPa 0,0 l/m 0 min 2 min 53 W/m 35,6 km/h (5 Bft)
05.05.2015 08:16 17,3 C 13,9 C 91 % 996,1 hPa 0,0 l/m 0 min 2 min 44 W/m 27,2 km/h (4 Bft)
05.05.2015 08:18 17,3 C 13,9 C 91 % 996,1 hPa 0,0 l/m 0 min 0 min 33 W/m 23,0 km/h (4 Bft)
05.05.2015 08:20 17,3 C 13,9 C 91 % 996,0 hPa 0,0 l/m 0 min 0 min 27 W/m 23,0 km/h (4 Bft)
05.05.2015 08:22 17,3 C 13,9 C 91 % 995,9 hPa 0,0 l/m 0 min 0 min 27 W/m 29,3 km/h (5 Bft)
05.05.2015 08:24 17,2 C 13,9 C 91 % 996,1 hPa 0,0 l/m 0 min 0 min 29 W/m 25,1 km/h (4 Bft)
05.05.2015 08:26 17,2 C 13,9 C 91 % 996,3 hPa 0,0 l/m 0 min 0 min 32 W/m 41,8 km/h (6 Bft)
05.05.2015 08:28 17,2 C 13,9 C 91 % 996,6 hPa 0,0 l/m 0 min 0 min 27 W/m 33,5 km/h (5 Bft)
05.05.2015 08:30 17,2 C 13,9 C 91 % 997,1 hPa 0,0 l/m 0 min 2 min 22 W/m 31,4 km/h (5 Bft)
05.05.2015 08:32 17,2 C 13,9 C 91 % 997,3 hPa 0,2 l/m 0 min 2 min 21 W/m 33,5 km/h (5 Bft)
05.05.2015 08:34 17,2 C 13,9 C 91 % 997,3 hPa 0,2 l/m 0 min 2 min 21 W/m 37,7 km/h (5 Bft)
05.05.2015 08:36 17,2 C 13,9 C 92 % 997,2 hPa 0,0 l/m 0 min 2 min 22 W/m 31,4 km/h (5 Bft)
05.05.2015 08:38 17,2 C 13,9 C 92 % 997,1 hPa 0,2 l/m 0 min 2 min 25 W/m 31,4 km/h (5 Bft)
05.05.2015 08:40 17,2 C 13,9 C 92 % 996,9 hPa 0,0 l/m 0 min 2 min 25 W/m 27,2 km/h (4 Bft)
05.05.2015 08:42 17,2 C 13,9 C 92 % 997,0 hPa 0,2 l/m 0 min 2 min 28 W/m 25,1 km/h (4 Bft)
05.05.2015 08:44 17,1 C 13,9 C 92 % 997,3 hPa 0,0 l/m 0 min 2 min 37 W/m 25,1 km/h (4 Bft)
05.05.2015 08:46 17,1 C 13,9 C 92 % 997,5 hPa 0,0 l/m 0 min 2 min 43 W/m 23,0 km/h (4 Bft)
05.05.2015 08:48 17,1 C 13,9 C 92 % 997,4 hPa 0,0 l/m 0 min 2 min 36 W/m 25,1 km/h (4 Bft)
05.05.2015 08:50 17,1 C 13,9 C 92 % 997,4 hPa 0,0 l/m 0 min 2 min 32 W/m 23,0 km/h (4 Bft)
05.05.2015 08:52 17,1 C 13,9 C 92 % 997,3 hPa 0,0 l/m 0 min 2 min 32 W/m 29,3 km/h (5 Bft)
05.05.2015 08:54 17,0 C 13,9 C 92 % 997,0 hPa 0,0 l/m 0 min 2 min 36 W/m 27,2 km/h (4 Bft)
05.05.2015 08:56 17,0 C 13,9 C 92 % 997,1 hPa 0,0 l/m 0 min 2 min 44 W/m 23,0 km/h (4 Bft)
05.05.2015 08:58 16,9 C 13,9 C 93 % 997,0 hPa 0,0 l/m 0 min 2 min 50 W/m 29,3 km/h (5 Bft)
05.05.2015 09:00 16,9 C 13,9 C 93 % 997,0 hPa 0,2 l/m 0 min 2 min 58 W/m 23,0 km/h (4 Bft)
05.05.2015 09:02 16,9 C 13,9 C 93 % 996,9 hPa 0,0 l/m 0 min 2 min 71 W/m 18,8 km/h (3 Bft)
05.05.2015 09:04 16,9 C 13,9 C 93 % 996,9 hPa 0,0 l/m 0 min 2 min 71 W/m 18,8 km/h (3 Bft)
05.05.2015 09:06 16,9 C 13,9 C 93 % 996,9 hPa 0,0 l/m 0 min 0 min 87 W/m 14,6 km/h (3 Bft)
05.05.2015 09:08 16,9 C 13,9 C 93 % 996,5 hPa 0,0 l/m 0 min 0 min 113 W/m 14,6 km/h (3 Bft)
05.05.2015 09:10 16,9 C 14,4 C 93 % 996,8 hPa 0,0 l/m 0 min 0 min 131 W/m 23,0 km/h (4 Bft)
05.05.2015 09:12 16,9 C 14,4 C 93 % 996,8 hPa 0,2 l/m 0 min 0 min 152 W/m 14,6 km/h (3 Bft)
05.05.2015 09:14 16,9 C 14,4 C 93 % 996,6 hPa 0,0 l/m 0 min 0 min 187 W/m 14,6 km/h (3 Bft)
05.05.2015 09:16 17,0 C 14,4 C 93 % 996,5 hPa 0,0 l/m 2 min 0 min 274 W/m 12,6 km/h (3 Bft)
05.05.2015 09:18 17,1 C 14,4 C 94 % 996,4 hPa 0,0 l/m 2 min 0 min 379 W/m 14,6 km/h (3 Bft)
05.05.2015 09:20 17,1 C 15,0 C 94 % 996,5 hPa 0,0 l/m 2 min 0 min 393 W/m 12,6 km/h (3 Bft)
05.05.2015 09:22 17,3 C 15,0 C 94 % 996,6 hPa 0,0 l/m 2 min 0 min 385 W/m 14,6 km/h (3 Bft)
05.05.2015 09:24 17,3 C 15,0 C 94 % 996,7 hPa 0,0 l/m 2 min 0 min 337 W/m 12,6 km/h (3 Bft)
05.05.2015 09:26 17,4 C 15,0 C 94 % 996,6 hPa 0,0 l/m 0 min 0 min 192 W/m 18,8 km/h (3 Bft)
05.05.2015 09:28 17,4 C 15,0 C 94 % 996,7 hPa 0,0 l/m 0 min 0 min 174 W/m 14,6 km/h (3 Bft)
05.05.2015 09:30 17,5 C 15,0 C 94 % 996,7 hPa 0,0 l/m 0 min 0 min 178 W/m 10,5 km/h (2 Bft)
05.05.2015 09:32 17,5 C 15,0 C 94 % 996,6 hPa 0,0 l/m 0 min 0 min 188 W/m 8,4 km/h (2 Bft)
05.05.2015 09:34 17,6 C 15,0 C 94 % 996,5 hPa 0,0 l/m 0 min 0 min 221 W/m 12,6 km/h (3 Bft)
05.05.2015 09:36 17,6 C 15,0 C 94 % 996,5 hPa 0,0 l/m 0 min 0 min 218 W/m 14,6 km/h (3 Bft)
05.05.2015 09:38 17,6 C 15,0 C 94 % 996,5 hPa 0,0 l/m 0 min 0 min 200 W/m 14,6 km/h (3 Bft)
05.05.2015 09:40 17,7 C 15,0 C 94 % 996,6 hPa 0,0 l/m 0 min 0 min 160 W/m 16,7 km/h (3 Bft)
05.05.2015 09:42 17,7 C 15,0 C 94 % 996,7 hPa 0,0 l/m 0 min 0 min 119 W/m 12,6 km/h (3 Bft)
05.05.2015 09:44 17,7 C 15,0 C 94 % 996,6 hPa 0,0 l/m 0 min 0 min 108 W/m 10,5 km/h (2 Bft)
05.05.2015 09:46 17,8 C 15,0 C 94 % 996,6 hPa 0,0 l/m 0 min 0 min 105 W/m 10,5 km/h (2 Bft)
05.05.2015 09:48 17,8 C 15,0 C 94 % 996,5 hPa 0,0 l/m 0 min 0 min 105 W/m 10,5 km/h (2 Bft)
05.05.2015 09:50 17,8 C 15,0 C 94 % 996,6 hPa 0,0 l/m 0 min 0 min 91 W/m 8,4 km/h (2 Bft)
05.05.2015 09:52 17,8 C 14,4 C 93 % 996,7 hPa 0,0 l/m 0 min 0 min 71 W/m 14,6 km/h (3 Bft)
05.05.2015 09:54 17,8 C 14,4 C 93 % 996,7 hPa 0,0 l/m 0 min 0 min 77 W/m 12,6 km/h (3 Bft)
05.05.2015 09:56 17,9 C 14,4 C 93 % 996,7 hPa 0,0 l/m 0 min 0 min 92 W/m 27,2 km/h (4 Bft)
05.05.2015 09:58 17,9 C 14,4 C 93 % 996,8 hPa 0,0 l/m 0 min 0 min 81 W/m 16,7 km/h (3 Bft)
05.05.2015 10:00 17,8 C 14,4 C 93 % 996,8 hPa 0,0 l/m 0 min 0 min 75 W/m 16,7 km/h (3 Bft)
05.05.2015 10:02 17,8 C 14,4 C 92 % 996,7 hPa 0,0 l/m 0 min 0 min 69 W/m 18,8 km/h (3 Bft)
05.05.2015 10:04 17,8 C 14,4 C 92 % 996,6 hPa 0,0 l/m 0 min 0 min 71 W/m 14,6 km/h (3 Bft)
05.05.2015 10:06 17,8 C 14,4 C 92 % 996,8 hPa 0,0 l/m 0 min 0 min 64 W/m 16,7 km/h (3 Bft)
05.05.2015 10:08 17,8 C 14,4 C 92 % 997,0 hPa 0,0 l/m 0 min 0 min 62 W/m 14,6 km/h (3 Bft)
05.05.2015 10:10 17,8 C 14,4 C 91 % 997,0 hPa 0,0 l/m 0 min 0 min 85 W/m 16,7 km/h (3 Bft)
05.05.2015 10:12 17,8 C 14,4 C 91 % 996,9 hPa 0,0 l/m 0 min 0 min 127 W/m 16,7 km/h (3 Bft)
05.05.2015 10:14 17,8 C 15,0 C 91 % 996,9 hPa 0,0 l/m 0 min 0 min 168 W/m 14,6 km/h (3 Bft)
05.05.2015 10:16 17,9 C 15,0 C 91 % 996,7 hPa 0,0 l/m 0 min 0 min 172 W/m 14,6 km/h (3 Bft)
05.05.2015 10:18 17,9 C 15,0 C 91 % 996,6 hPa 0,0 l/m 0 min 0 min 155 W/m 14,6 km/h (3 Bft)
05.05.2015 10:20 17,9 C 15,0 C 91 % 996,4 hPa 0,0 l/m 0 min 0 min 132 W/m 14,6 km/h (3 Bft)
05.05.2015 10:22 17,9 C 15,0 C 91 % 996,5 hPa 0,0 l/m 0 min 0 min 144 W/m 12,6 km/h (3 Bft)
05.05.2015 10:24 17,9 C 15,0 C 91 % 996,7 hPa 0,0 l/m 0 min 0 min 161 W/m 12,6 km/h (3 Bft)
05.05.2015 10:26 18,0 C 15,0 C 91 % 997,0 hPa 0,0 l/m 0 min 0 min 170 W/m 14,6 km/h (3 Bft)
05.05.2015 10:28 18,0 C 15,0 C 91 % 996,9 hPa 0,0 l/m 0 min 0 min 191 W/m 18,8 km/h (3 Bft)
05.05.2015 10:30 18,1 C 15,0 C 91 % 996,8 hPa 0,0 l/m 0 min 0 min 224 W/m 12,6 km/h (3 Bft)
05.05.2015 10:32 18,1 C 15,0 C 91 % 996,9 hPa 0,0 l/m 0 min 0 min 191 W/m 18,8 km/h (3 Bft)
05.05.2015 10:34 18,1 C 15,0 C 91 % 996,9 hPa 0,0 l/m 0 min 0 min 178 W/m 14,6 km/h (3 Bft)
05.05.2015 10:36 18,2 C 15,6 C 91 % 997,0 hPa 0,0 l/m 0 min 0 min 199 W/m 18,8 km/h (3 Bft)
05.05.2015 10:38 18,2 C 15,6 C 91 % 996,9 hPa 0,0 l/m 0 min 0 min 249 W/m 18,8 km/h (3 Bft)
05.05.2015 10:40 18,3 C 15,6 C 91 % 996,8 hPa 0,0 l/m 0 min 0 min 280 W/m 23,0 km/h (4 Bft)
05.05.2015 10:42 18,3 C 15,6 C 91 % 996,8 hPa 0,0 l/m 0 min 0 min 302 W/m 27,2 km/h (4 Bft)
05.05.2015 10:44 18,4 C 15,6 C 91 % 996,9 hPa 0,0 l/m 0 min 0 min 296 W/m 20,9 km/h (4 Bft)
05.05.2015 10:46 18,4 C 15,6 C 91 % 997,0 hPa 0,0 l/m 0 min 0 min 291 W/m 23,0 km/h (4 Bft)
05.05.2015 10:48 18,6 C 15,6 C 91 % 997,0 hPa 0,0 l/m 0 min 0 min 266 W/m 25,1 km/h (4 Bft)
05.05.2015 10:50 18,6 C 15,6 C 91 % 996,9 hPa 0,0 l/m 0 min 0 min 313 W/m 18,8 km/h (3 Bft)
05.05.2015 10:52 18,7 C 15,6 C 91 % 996,9 hPa 0,0 l/m 2 min 0 min 363 W/m 20,9 km/h (4 Bft)
05.05.2015 10:54 18,8 C 15,6 C 91 % 996,9 hPa 0,0 l/m 2 min 0 min 553 W/m 25,1 km/h (4 Bft)
05.05.2015 10:56 18,9 C 15,6 C 91 % 996,7 hPa 0,0 l/m 2 min 0 min 566 W/m 16,7 km/h (3 Bft)
05.05.2015 10:58 19,1 C 16,1 C 91 % 996,6 hPa 0,0 l/m 2 min 0 min 630 W/m 18,8 km/h (3 Bft)
05.05.2015 11:00 19,2 C 16,1 C 91 % 996,7 hPa 0,0 l/m 2 min 0 min 649 W/m 20,9 km/h (4 Bft)
05.05.2015 11:02 19,3 C 16,1 C 91 % 996,7 hPa 0,0 l/m 2 min 0 min 641 W/m 23,0 km/h (4 Bft)
05.05.2015 11:04 19,4 C 16,1 C 91 % 996,4 hPa 0,0 l/m 2 min 0 min 640 W/m 25,1 km/h (4 Bft)
05.05.2015 11:06 19,6 C 16,1 C 91 % 996,5 hPa 0,0 l/m 2 min 0 min 641 W/m 25,1 km/h (4 Bft)
05.05.2015 11:08 19,7 C 16,1 C 90 % 996,6 hPa 0,0 l/m 2 min 0 min 644 W/m 23,0 km/h (4 Bft)
05.05.2015 11:10 19,9 C 16,1 C 90 % 996,4 hPa 0,0 l/m 2 min 0 min 646 W/m 18,8 km/h (3 Bft)
05.05.2015 11:12 20,1 C 16,7 C 89 % 996,4 hPa 0,0 l/m 2 min 0 min 649 W/m 20,9 km/h (4 Bft)
05.05.2015 11:14 20,2 C 16,7 C 89 % 996,4 hPa 0,0 l/m 2 min 0 min 653 W/m 25,1 km/h (4 Bft)
05.05.2015 11:16 20,4 C 16,7 C 89 % 996,5 hPa 0,0 l/m 2 min 0 min 655 W/m 16,7 km/h (3 Bft)
05.05.2015 11:18 20,6 C 16,7 C 89 % 996,4 hPa 0,0 l/m 2 min 0 min 660 W/m 20,9 km/h (4 Bft)
05.05.2015 11:20 20,7 C 16,7 C 88 % 996,4 hPa 0,0 l/m 2 min 0 min 664 W/m 18,8 km/h (3 Bft)
05.05.2015 11:22 20,9 C 16,7 C 87 % 996,4 hPa 0,0 l/m 2 min 0 min 666 W/m 29,3 km/h (5 Bft)
05.05.2015 11:24 21,1 C 16,7 C 86 % 996,4 hPa 0,0 l/m 2 min 0 min 670 W/m 29,3 km/h (5 Bft)
05.05.2015 11:26 21,2 C 16,7 C 85 % 996,5 hPa 0,0 l/m 2 min 0 min 672 W/m 43,9 km/h (6 Bft)
05.05.2015 11:28 21,4 C 17,2 C 83 % 996,4 hPa 0,0 l/m 2 min 0 min 673 W/m 37,7 km/h (5 Bft)
05.05.2015 11:30 21,6 C 17,2 C 82 % 996,5 hPa 0,0 l/m 2 min 0 min 676 W/m 33,5 km/h (5 Bft)
05.05.2015 11:32 21,7 C 17,2 C 82 % 996,5 hPa 0,0 l/m 2 min 0 min 687 W/m 27,2 km/h (4 Bft)
05.05.2015 11:34 21,9 C 17,2 C 82 % 996,7 hPa 0,0 l/m 2 min 0 min 703 W/m 29,3 km/h (5 Bft)
05.05.2015 11:36 22,0 C 17,2 C 81 % 996,5 hPa 0,0 l/m 2 min 0 min 736 W/m 20,9 km/h (4 Bft)
05.05.2015 11:38 22,2 C 17,8 C 81 % 996,5 hPa 0,0 l/m 2 min 0 min 810 W/m 25,1 km/h (4 Bft)
05.05.2015 11:40 22,2 C 17,8 C 80 % 996,6 hPa 0,0 l/m 2 min 0 min 420 W/m 37,7 km/h (5 Bft)
05.05.2015 11:42 22,3 C 17,8 C 79 % 996,6 hPa 0,0 l/m 0 min 0 min 279 W/m 25,1 km/h (4 Bft)
05.05.2015 11:44 22,4 C 17,8 C 78 % 996,5 hPa 0,0 l/m 2 min 0 min 384 W/m 33,5 km/h (5 Bft)
05.05.2015 11:46 22,5 C 17,8 C 79 % 996,5 hPa 0,0 l/m 2 min 0 min 805 W/m 16,7 km/h (3 Bft)
05.05.2015 11:48 22,6 C 17,8 C 78 % 996,5 hPa 0,0 l/m 2 min 0 min 770 W/m 27,2 km/h (4 Bft)
05.05.2015 11:50 22,7 C 17,8 C 75 % 996,6 hPa 0,0 l/m 2 min 0 min 729 W/m 39,7 km/h (6 Bft)
05.05.2015 11:52 22,9 C 17,8 C 74 % 996,7 hPa 0,0 l/m 2 min 0 min 708 W/m 52,3 km/h (7 Bft)
05.05.2015 11:54 23,0 C 17,8 C 71 % 996,5 hPa 0,0 l/m 2 min 0 min 692 W/m 41,8 km/h (6 Bft)
05.05.2015 11:56 23,1 C 17,8 C 71 % 996,5 hPa 0,0 l/m 2 min 0 min 487 W/m 43,9 km/h (6 Bft)
05.05.2015 11:58 23,2 C 17,8 C 70 % 996,5 hPa 0,0 l/m 2 min 0 min 487 W/m 46,0 km/h (6 Bft)
05.05.2015 12:00 23,3 C 17,8 C 69 % 996,4 hPa 0,0 l/m 0 min 0 min 292 W/m 35,6 km/h (5 Bft)
05.05.2015 12:02 23,4 C 17,8 C 70 % 996,5 hPa 0,0 l/m 0 min 0 min 165 W/m 39,7 km/h (6 Bft)
05.05.2015 12:06 23,7 C 17,8 C 69 % 996,5 hPa 0,0 l/m 0 min 0 min 292 W/m 29,3 km/h (5 Bft)
05.05.2015 12:08 23,8 C 17,8 C 69 % 996,5 hPa 0,0 l/m 0 min 0 min 294 W/m 23,0 km/h (4 Bft)
05.05.2015 12:10 23,9 C 17,8 C 69 % 996,6 hPa 0,0 l/m 0 min 0 min 210 W/m 25,1 km/h (4 Bft)
05.05.2015 12:12 24,0 C 18,3 C 68 % 996,5 hPa 0,0 l/m 0 min 0 min 279 W/m 43,9 km/h (6 Bft)
05.05.2015 12:14 24,1 C 18,3 C 68 % 996,6 hPa 0,0 l/m 2 min 0 min 781 W/m 27,2 km/h (4 Bft)
05.05.2015 12:16 24,2 C 18,3 C 66 % 996,6 hPa 0,0 l/m 2 min 0 min 818 W/m 35,6 km/h (5 Bft)
05.05.2015 12:18 24,2 C 18,3 C 66 % 996,7 hPa 0,0 l/m 2 min 0 min 822 W/m 43,9 km/h (6 Bft)
05.05.2015 12:20 24,3 C 18,3 C 64 % 996,6 hPa 0,0 l/m 2 min 0 min 805 W/m 37,7 km/h (5 Bft)
05.05.2015 12:22 24,3 C 18,3 C 65 % 996,7 hPa 0,0 l/m 2 min 0 min 857 W/m 33,5 km/h (5 Bft)
05.05.2015 12:24 24,3 C 18,3 C 65 % 996,7 hPa 0,0 l/m 2 min 0 min 859 W/m 27,2 km/h (4 Bft)
05.05.2015 12:26 24,3 C 18,3 C 66 % 996,6 hPa 0,0 l/m 2 min 0 min 881 W/m 27,2 km/h (4 Bft)
05.05.2015 12:28 24,4 C 18,3 C 66 % 996,5 hPa 0,0 l/m 2 min 0 min 815 W/m 25,1 km/h (4 Bft)
05.05.2015 12:30 24,4 C 18,3 C 65 % 996,5 hPa 0,0 l/m 2 min 0 min 470 W/m 31,4 km/h (5 Bft)
05.05.2015 12:32 24,5 C 18,3 C 64 % 996,6 hPa 0,0 l/m 2 min 0 min 642 W/m 41,8 km/h (6 Bft)
05.05.2015 12:34 24,5 C 18,3 C 63 % 996,5 hPa 0,0 l/m 2 min 0 min 802 W/m 43,9 km/h (6 Bft)
05.05.2015 12:36 24,6 C 18,3 C 64 % 996,6 hPa 0,0 l/m 2 min 0 min 827 W/m 29,3 km/h (5 Bft)
05.05.2015 12:38 24,6 C 18,3 C 64 % 996,6 hPa 0,0 l/m 2 min 0 min 803 W/m 20,9 km/h (4 Bft)
05.05.2015 12:40 24,7 C 18,3 C 64 % 996,7 hPa 0,0 l/m 2 min 0 min 820 W/m 18,8 km/h (3 Bft)
05.05.2015 12:42 24,8 C 18,3 C 63 % 996,6 hPa 0,0 l/m 2 min 0 min 835 W/m 46,0 km/h (6 Bft)
05.05.2015 12:44 24,8 C 18,9 C 62 % 996,6 hPa 0,0 l/m 2 min 0 min 836 W/m 37,7 km/h (5 Bft)
05.05.2015 12:46 24,9 C 18,9 C 62 % 996,8 hPa 0,0 l/m 2 min 0 min 828 W/m 41,8 km/h (6 Bft)
05.05.2015 12:48 24,9 C 18,9 C 62 % 996,9 hPa 0,0 l/m 2 min 0 min 410 W/m 43,9 km/h (6 Bft)
05.05.2015 12:50 24,8 C 18,3 C 59 % 997,0 hPa 0,0 l/m 0 min 0 min 158 W/m 62,8 km/h (8 Bft)
05.05.2015 12:52 24,6 C 18,3 C 59 % 997,1 hPa 0,0 l/m 2 min 0 min 511 W/m 46,0 km/h (6 Bft)
05.05.2015 12:54 24,4 C 18,3 C 59 % 997,0 hPa 0,0 l/m 2 min 0 min 844 W/m 33,5 km/h (5 Bft)
05.05.2015 12:56 24,4 C 18,3 C 60 % 997,1 hPa 0,0 l/m 2 min 0 min 838 W/m 33,5 km/h (5 Bft)
05.05.2015 12:58 24,4 C 18,3 C 60 % 997,2 hPa 0,0 l/m 2 min 0 min 843 W/m 43,9 km/h (6 Bft)
05.05.2015 13:00 24,4 C 18,9 C 61 % 997,2 hPa 0,0 l/m 2 min 0 min 857 W/m 54,4 km/h (7 Bft)
05.05.2015 13:02 24,4 C 18,9 C 61 % 997,1 hPa 0,0 l/m 2 min 0 min 848 W/m 35,6 km/h (5 Bft)
05.05.2015 13:04 24,4 C 18,9 C 59 % 997,1 hPa 0,0 l/m 2 min 0 min 857 W/m 58,6 km/h (7 Bft)
05.05.2015 13:06 24,4 C 18,9 C 59 % 997,1 hPa 0,0 l/m 2 min 0 min 897 W/m 50,2 km/h (7 Bft)
05.05.2015 13:08 24,4 C 18,9 C 59 % 997,1 hPa 0,0 l/m 2 min 0 min 691 W/m 48,1 km/h (6 Bft)
05.05.2015 13:10 24,4 C 18,9 C 59 % 997,1 hPa 0,0 l/m 2 min 0 min 651 W/m 39,7 km/h (6 Bft)
05.05.2015 13:12 24,5 C 18,9 C 59 % 997,2 hPa 0,0 l/m 2 min 0 min 603 W/m 46,0 km/h (6 Bft)
05.05.2015 13:14 24,4 C 18,9 C 58 % 997,2 hPa 0,0 l/m 2 min 0 min 415 W/m 46,0 km/h (6 Bft)
05.05.2015 13:16 24,4 C 18,9 C 59 % 997,2 hPa 0,0 l/m 0 min 0 min 389 W/m 39,7 km/h (6 Bft)
05.05.2015 13:18 24,3 C 18,9 C 58 % 997,2 hPa 0,0 l/m 0 min 0 min 279 W/m 39,7 km/h (6 Bft)
05.05.2015 13:20 24,2 C 18,3 C 58 % 997,2 hPa 0,0 l/m 0 min 0 min 302 W/m 35,6 km/h (5 Bft)
05.05.2015 13:22 24,1 C 18,3 C 57 % 997,2 hPa 0,0 l/m 0 min 0 min 242 W/m 48,1 km/h (6 Bft)
05.05.2015 13:24 24,0 C 18,3 C 57 % 997,2 hPa 0,0 l/m 0 min 0 min 249 W/m 48,1 km/h (6 Bft)
05.05.2015 13:26 23,9 C 18,3 C 57 % 997,2 hPa 0,0 l/m 0 min 0 min 223 W/m 56,5 km/h (7 Bft)
05.05.2015 13:28 23,8 C 17,8 C 57 % 997,1 hPa 0,0 l/m 0 min 0 min 200 W/m 52,3 km/h (7 Bft)
05.05.2015 13:30 23,7 C 17,8 C 57 % 997,2 hPa 0,0 l/m 0 min 0 min 189 W/m 46,0 km/h (6 Bft)
05.05.2015 13:32 23,6 C 17,8 C 58 % 997,2 hPa 0,0 l/m 0 min 0 min 228 W/m 46,0 km/h (6 Bft)
05.05.2015 13:34 23,4 C 17,8 C 59 % 997,2 hPa 0,0 l/m 0 min 0 min 303 W/m 46,0 km/h (6 Bft)
05.05.2015 13:36 23,4 C 17,8 C 59 % 997,2 hPa 0,0 l/m 0 min 0 min 281 W/m 41,8 km/h (6 Bft)
05.05.2015 13:38 23,3 C 18,3 C 58 % 997,4 hPa 0,0 l/m 0 min 0 min 293 W/m 58,6 km/h (7 Bft)
05.05.2015 13:40 23,3 C 17,8 C 59 % 997,3 hPa 0,0 l/m 0 min 0 min 271 W/m 56,5 km/h (7 Bft)
05.05.2015 13:42 23,2 C 17,8 C 58 % 997,3 hPa 0,0 l/m 0 min 0 min 228 W/m 60,7 km/h (7 Bft)
05.05.2015 13:44 23,1 C 17,8 C 58 % 997,3 hPa 0,0 l/m 0 min 0 min 225 W/m 43,9 km/h (6 Bft)
05.05.2015 13:46 23,0 C 17,8 C 59 % 997,5 hPa 0,0 l/m 0 min 0 min 271 W/m 33,5 km/h (5 Bft)
05.05.2015 13:48 23,0 C 17,8 C 60 % 997,5 hPa 0,0 l/m 0 min 0 min 339 W/m 39,7 km/h (6 Bft)
05.05.2015 13:50 23,1 C 17,8 C 61 % 997,5 hPa 0,0 l/m 2 min 0 min 673 W/m 48,1 km/h (6 Bft)
05.05.2015 13:52 23,2 C 18,3 C 61 % 997,5 hPa 0,0 l/m 2 min 0 min 1072 W/m 50,2 km/h (7 Bft)
05.05.2015 13:54 23,3 C 18,3 C 59 % 997,6 hPa 0,0 l/m 2 min 0 min 1041 W/m 56,5 km/h (7 Bft)
05.05.2015 13:56 23,4 C 18,3 C 59 % 997,6 hPa 0,0 l/m 2 min 0 min 946 W/m 46,0 km/h (6 Bft)
05.05.2015 13:58 23,4 C 18,3 C 58 % 997,5 hPa 0,0 l/m 2 min 0 min 524 W/m 54,4 km/h (7 Bft)
05.05.2015 14:00 23,4 C 17,8 C 58 % 997,6 hPa 0,0 l/m 0 min 0 min 216 W/m 54,4 km/h (7 Bft)
05.05.2015 14:02 23,3 C 17,8 C 57 % 997,6 hPa 0,0 l/m 0 min 0 min 166 W/m 58,6 km/h (7 Bft)
05.05.2015 14:04 23,2 C 17,2 C 57 % 997,8 hPa 0,0 l/m 0 min 0 min 78 W/m 43,9 km/h (6 Bft)
05.05.2015 14:06 23,0 C 17,2 C 57 % 997,8 hPa 0,0 l/m 0 min 0 min 48 W/m 52,3 km/h (7 Bft)
05.05.2015 14:08 22,9 C 16,7 C 59 % 997,8 hPa 0,0 l/m 0 min 2 min 66 W/m 66,9 km/h (8 Bft)
05.05.2015 14:10 22,7 C 16,1 C 61 % 998,1 hPa 0,0 l/m 0 min 2 min 139 W/m 50,2 km/h (7 Bft)
05.05.2015 14:12 22,4 C 16,1 C 63 % 998,3 hPa 0,0 l/m 0 min 2 min 225 W/m 48,1 km/h (6 Bft)
05.05.2015 14:14 22,2 C 16,1 C 64 % 998,4 hPa 0,0 l/m 0 min 0 min 194 W/m 46,0 km/h (6 Bft)
05.05.2015 14:16 22,1 C 16,1 C 63 % 998,4 hPa 0,0 l/m 0 min 0 min 172 W/m 58,6 km/h (7 Bft)
05.05.2015 14:18 21,9 C 16,7 C 63 % 998,5 hPa 0,0 l/m 0 min 2 min 215 W/m 52,3 km/h (7 Bft)
05.05.2015 14:20 21,8 C 16,7 C 64 % 998,5 hPa 0,0 l/m 0 min 2 min 269 W/m 56,5 km/h (7 Bft)
05.05.2015 14:22 21,7 C 16,7 C 64 % 998,6 hPa 0,0 l/m 0 min 0 min 203 W/m 48,1 km/h (6 Bft)
05.05.2015 14:24 21,7 C 16,7 C 65 % 998,6 hPa 0,0 l/m 0 min 0 min 156 W/m 52,3 km/h (7 Bft)
05.05.2015 14:26 21,6 C 17,2 C 65 % 998,5 hPa 0,0 l/m 2 min 0 min 532 W/m 56,5 km/h (7 Bft)
05.05.2015 14:30 21,7 C 17,8 C 65 % 998,8 hPa 0,0 l/m 2 min 0 min 682 W/m 31,4 km/h (5 Bft)
05.05.2015 14:32 21,7 C 17,8 C 64 % 998,9 hPa 0,0 l/m 0 min 0 min 241 W/m 60,7 km/h (7 Bft)
05.05.2015 14:34 21,7 C 17,8 C 63 % 999,0 hPa 0,0 l/m 0 min 0 min 240 W/m 56,5 km/h (7 Bft)
05.05.2015 14:36 21,6 C 17,2 C 63 % 999,0 hPa 0,0 l/m 0 min 0 min 154 W/m 50,2 km/h (7 Bft)
05.05.2015 14:38 21,6 C 17,2 C 63 % 999,1 hPa 0,0 l/m 0 min 0 min 141 W/m 60,7 km/h (7 Bft)
05.05.2015 14:40 21,5 C 17,2 C 64 % 999,2 hPa 0,0 l/m 0 min 0 min 193 W/m 71,1 km/h (8 Bft)
05.05.2015 14:42 21,4 C 17,2 C 64 % 999,2 hPa 0,0 l/m 0 min 0 min 290 W/m 46,0 km/h (6 Bft)
05.05.2015 14:44 21,4 C 17,2 C 65 % 999,4 hPa 0,0 l/m 0 min 0 min 230 W/m 60,7 km/h (7 Bft)
05.05.2015 14:46 21,4 C 17,2 C 65 % 999,5 hPa 0,0 l/m 0 min 2 min 183 W/m 50,2 km/h (7 Bft)
05.05.2015 14:48 21,3 C 17,2 C 66 % 999,4 hPa 0,0 l/m 0 min 0 min 219 W/m 81,6 km/h (9 Bft)
05.05.2015 14:50 21,3 C 18,3 C 66 % 999,6 hPa 0,0 l/m 2 min 0 min 632 W/m 58,6 km/h (7 Bft)
05.05.2015 14:52 21,4 C 18,3 C 65 % 999,6 hPa 0,0 l/m 2 min 0 min 937 W/m 73,2 km/h (8 Bft)
05.05.2015 14:54 21,5 C 18,3 C 65 % 999,5 hPa 0,0 l/m 2 min 0 min 937 W/m 62,8 km/h (8 Bft)
05.05.2015 14:56 21,6 C 18,3 C 65 % 999,7 hPa 0,0 l/m 0 min 0 min 285 W/m 64,9 km/h (8 Bft)
05.05.2015 14:58 21,6 C 17,8 C 65 % 999,7 hPa 0,0 l/m 0 min 0 min 306 W/m 39,7 km/h (6 Bft)
05.05.2015 15:00 21,6 C 18,3 C 66 % 999,8 hPa 0,0 l/m 2 min 0 min 575 W/m 54,4 km/h (7 Bft)
05.05.2015 15:02 21,7 C 18,3 C 66 % 999,9 hPa 0,0 l/m 2 min 0 min 819 W/m 41,8 km/h (6 Bft)
05.05.2015 15:04 21,7 C 17,8 C 64 % 999,9 hPa 0,0 l/m 0 min 0 min 198 W/m 62,8 km/h (8 Bft)
05.05.2015 15:08 21,4 C 17,2 C 65 % 1000,1 hPa 0,0 l/m 0 min 0 min 97 W/m 52,3 km/h (7 Bft)
05.05.2015 15:10 21,3 C 16,7 C 66 % 1000,2 hPa 0,0 l/m 0 min 0 min 58 W/m 39,7 km/h (6 Bft)
05.05.2015 15:14 20,7 C 15,6 C 70 % 1001,4 hPa 0,2 l/m 0 min 2 min 134 W/m 64,9 km/h (8 Bft)
05.05.2015 15:16 19,9 C 15,0 C 72 % 1001,6 hPa 0,0 l/m 0 min 2 min 235 W/m 48,1 km/h (6 Bft)
05.05.2015 15:18 19,4 C 15,0 C 74 % 1001,7 hPa 0,0 l/m 0 min 2 min 242 W/m 48,1 km/h (6 Bft)
05.05.2015 15:20 18,9 C 15,0 C 75 % 1001,9 hPa 0,0 l/m 0 min 2 min 274 W/m 52,3 km/h (7 Bft)
05.05.2015 15:24 17,9 C 14,4 C 75 % 1002,0 hPa 0,0 l/m 0 min 2 min 313 W/m 27,2 km/h (4 Bft)
05.05.2015 15:26 17,6 C 15,0 C 77 % 1002,1 hPa 0,0 l/m 0 min 2 min 273 W/m 62,8 km/h (8 Bft)
05.05.2015 15:28 17,3 C 15,0 C 78 % 1002,3 hPa 0,0 l/m 0 min 2 min 212 W/m 39,7 km/h (6 Bft)
05.05.2015 15:30 17,1 C 15,0 C 79 % 1002,4 hPa 0,0 l/m 0 min 2 min 212 W/m 33,5 km/h (5 Bft)
05.05.2015 15:32 17,0 C 15,0 C 80 % 1002,5 hPa 0,0 l/m 0 min 2 min 241 W/m 46,0 km/h (6 Bft)
05.05.2015 15:34 16,9 C 15,0 C 80 % 1002,7 hPa 0,0 l/m 0 min 0 min 203 W/m 46,0 km/h (6 Bft)
05.05.2015 15:36 16,7 C 14,4 C 80 % 1002,8 hPa 0,0 l/m 0 min 0 min 199 W/m 46,0 km/h (6 Bft)
05.05.2015 15:38 16,6 C 14,4 C 81 % 1002,9 hPa 0,0 l/m 0 min 0 min 167 W/m 56,5 km/h (7 Bft)
05.05.2015 15:40 16,4 C 14,4 C 81 % 1002,7 hPa 0,0 l/m 0 min 0 min 142 W/m 54,4 km/h (7 Bft)
05.05.2015 15:42 16,3 C 14,4 C 80 % 1002,8 hPa 0,0 l/m 0 min 0 min 166 W/m 33,5 km/h (5 Bft)
05.05.2015 15:44 16,2 C 14,4 C 81 % 1002,7 hPa 0,0 l/m 0 min 0 min 203 W/m 52,3 km/h (7 Bft)
05.05.2015 15:46 16,2 C 14,4 C 80 % 1002,8 hPa 0,0 l/m 0 min 2 min 233 W/m 33,5 km/h (5 Bft)
05.05.2015 15:48 16,1 C 14,4 C 79 % 1002,7 hPa 0,0 l/m 0 min 2 min 314 W/m 56,5 km/h (7 Bft)
05.05.2015 15:50 16,1 C 15,0 C 77 % 1002,9 hPa 0,0 l/m 2 min 2 min 516 W/m 58,6 km/h (7 Bft)
05.05.2015 15:52 16,2 C 15,0 C 77 % 1002,8 hPa 0,0 l/m 2 min 2 min 857 W/m 58,6 km/h (7 Bft)
05.05.2015 15:54 16,3 C 15,0 C 77 % 1003,0 hPa 0,0 l/m 2 min 2 min 870 W/m 43,9 km/h (6 Bft)
05.05.2015 15:56 16,4 C 15,0 C 77 % 1003,0 hPa 0,0 l/m 2 min 2 min 548 W/m 43,9 km/h (6 Bft)
05.05.2015 15:58 16,6 C 15,6 C 79 % 1003,2 hPa 0,0 l/m 2 min 2 min 737 W/m 23,0 km/h (4 Bft)
05.05.2015 16:00 16,8 C 15,6 C 79 % 1003,2 hPa 0,0 l/m 2 min 2 min 579 W/m 35,6 km/h (5 Bft)
05.05.2015 16:05 16,8 C 15,0 C 78 % 1003,3 hPa 0,0 l/m 0 min 2 min 315 W/m 48,1 km/h (6 Bft)
05.05.2015 16:10 16,7 C 15,0 C 79 % 1003,6 hPa 0,0 l/m 0 min 0 min 233 W/m 37,7 km/h (5 Bft)
05.05.2015 16:12 16,7 C 15,0 C 79 % 1003,6 hPa 0,0 l/m 0 min 0 min 299 W/m 25,1 km/h (4 Bft)
05.05.2015 16:14 16,7 C 15,6 C 79 % 1003,7 hPa 0,0 l/m 2 min 0 min 364 W/m 35,6 km/h (5 Bft)
05.05.2015 16:16 16,7 C 15,6 C 78 % 1003,6 hPa 0,0 l/m 2 min 0 min 437 W/m 41,8 km/h (6 Bft)
05.05.2015 16:18 16,8 C 16,1 C 78 % 1003,7 hPa 0,0 l/m 2 min 0 min 489 W/m 29,3 km/h (5 Bft)
05.05.2015 16:20 16,9 C 16,1 C 79 % 1003,7 hPa 0,0 l/m 2 min 0 min 880 W/m 33,5 km/h (5 Bft)
05.05.2015 16:22 17,1 C 16,1 C 78 % 1003,8 hPa 0,0 l/m 2 min 0 min 629 W/m 39,7 km/h (6 Bft)
05.05.2015 16:24 17,2 C 16,1 C 76 % 1003,9 hPa 0,0 l/m 2 min 0 min 356 W/m 41,8 km/h (6 Bft)
05.05.2015 16:26 17,2 C 15,6 C 76 % 1004,1 hPa 0,0 l/m 0 min 0 min 305 W/m 39,7 km/h (6 Bft)
05.05.2015 16:28 17,3 C 15,6 C 76 % 1004,1 hPa 0,0 l/m 0 min 0 min 291 W/m 27,2 km/h (4 Bft)
05.05.2015 16:30 17,3 C 15,6 C 77 % 1004,2 hPa 0,0 l/m 0 min 0 min 236 W/m 27,2 km/h (4 Bft)
05.05.2015 16:32 17,3 C 15,6 C 76 % 1004,2 hPa 0,0 l/m 0 min 0 min 215 W/m 37,7 km/h (5 Bft)
05.05.2015 16:34 17,3 C 15,6 C 75 % 1004,2 hPa 0,0 l/m 0 min 0 min 267 W/m 39,7 km/h (6 Bft)
05.05.2015 16:36 17,3 C 15,6 C 75 % 1004,2 hPa 0,0 l/m 0 min 0 min 296 W/m 33,5 km/h (5 Bft)
05.05.2015 16:38 17,3 C 15,6 C 74 % 1004,3 hPa 0,0 l/m 0 min 0 min 272 W/m 43,9 km/h (6 Bft)
05.05.2015 16:40 17,2 C 15,6 C 73 % 1004,2 hPa 0,0 l/m 0 min 0 min 275 W/m 43,9 km/h (6 Bft)
05.05.2015 16:42 17,2 C 15,6 C 73 % 1004,2 hPa 0,0 l/m 2 min 0 min 307 W/m 35,6 km/h (5 Bft)
05.05.2015 16:44 17,2 C 15,6 C 73 % 1004,3 hPa 0,0 l/m 2 min 0 min 343 W/m 48,1 km/h (6 Bft)
05.05.2015 16:46 17,2 C 15,6 C 73 % 1004,3 hPa 0,0 l/m 2 min 0 min 329 W/m 31,4 km/h (5 Bft)
05.05.2015 16:48 17,2 C 15,6 C 72 % 1004,3 hPa 0,0 l/m 0 min 0 min 280 W/m 43,9 km/h (6 Bft)
05.05.2015 16:50 17,2 C 15,6 C 72 % 1004,4 hPa 0,0 l/m 0 min 0 min 294 W/m 31,4 km/h (5 Bft)
05.05.2015 16:52 17,2 C 15,6 C 72 % 1004,3 hPa 0,0 l/m 2 min 0 min 304 W/m 41,8 km/h (6 Bft)
05.05.2015 16:54 17,3 C 15,6 C 72 % 1004,3 hPa 0,0 l/m 2 min 0 min 325 W/m 43,9 km/h (6 Bft)
05.05.2015 16:56 17,3 C 15,6 C 72 % 1004,4 hPa 0,0 l/m 2 min 0 min 308 W/m 25,1 km/h (4 Bft)
05.05.2015 16:58 17,3 C 15,6 C 72 % 1004,4 hPa 0,0 l/m 0 min 0 min 225 W/m 31,4 km/h (5 Bft)
05.05.2015 17:00 17,3 C 15,0 C 71 % 1004,4 hPa 0,0 l/m 0 min 0 min 180 W/m 39,7 km/h (6 Bft)
05.05.2015 17:02 17,3 C 15,0 C 71 % 1004,7 hPa 0,0 l/m 0 min 0 min 197 W/m 27,2 km/h (4 Bft)
05.05.2015 17:04 17,3 C 15,0 C 70 % 1004,6 hPa 0,0 l/m 2 min 0 min 298 W/m 33,5 km/h (5 Bft)
05.05.2015 17:06 17,3 C 15,6 C 71 % 1004,8 hPa 0,0 l/m 2 min 0 min 346 W/m 41,8 km/h (6 Bft)
05.05.2015 17:08 17,4 C 15,6 C 71 % 1004,6 hPa 0,0 l/m 2 min 0 min 604 W/m 29,3 km/h (5 Bft)
05.05.2015 17:10 17,4 C 15,0 C 70 % 1004,7 hPa 0,0 l/m 2 min 0 min 393 W/m 41,8 km/h (6 Bft)
05.05.2015 17:12 17,4 C 15,0 C 69 % 1004,7 hPa 0,0 l/m 0 min 0 min 165 W/m 37,7 km/h (5 Bft)
05.05.2015 17:14 17,5 C 15,0 C 69 % 1004,6 hPa 0,0 l/m 2 min 0 min 517 W/m 29,3 km/h (5 Bft)
05.05.2015 17:16 17,6 C 15,0 C 69 % 1004,6 hPa 0,0 l/m 2 min 0 min 592 W/m 31,4 km/h (5 Bft)
05.05.2015 17:18 17,6 C 15,0 C 68 % 1004,6 hPa 0,0 l/m 2 min 0 min 532 W/m 35,6 km/h (5 Bft)
05.05.2015 17:20 17,6 C 15,0 C 67 % 1004,7 hPa 0,0 l/m 2 min 0 min 512 W/m 37,7 km/h (5 Bft)
05.05.2015 17:22 17,7 C 15,0 C 67 % 1004,8 hPa 0,0 l/m 2 min 0 min 514 W/m 25,1 km/h (4 Bft)
05.05.2015 17:24 17,8 C 15,0 C 67 % 1004,7 hPa 0,0 l/m 2 min 0 min 501 W/m 41,8 km/h (6 Bft)
05.05.2015 17:26 17,8 C 15,0 C 65 % 1004,8 hPa 0,0 l/m 2 min 0 min 498 W/m 41,8 km/h (6 Bft)
05.05.2015 17:28 17,8 C 14,4 C 65 % 1004,9 hPa 0,0 l/m 2 min 0 min 495 W/m 50,2 km/h (7 Bft)
05.05.2015 17:30 17,8 C 14,4 C 65 % 1004,8 hPa 0,0 l/m 2 min 0 min 487 W/m 37,7 km/h (5 Bft)
05.05.2015 17:32 17,8 C 14,4 C 63 % 1004,9 hPa 0,0 l/m 2 min 0 min 482 W/m 41,8 km/h (6 Bft)
05.05.2015 17:34 17,8 C 14,4 C 63 % 1005,1 hPa 0,0 l/m 2 min 0 min 477 W/m 41,8 km/h (6 Bft)
05.05.2015 17:36 17,8 C 14,4 C 63 % 1005,0 hPa 0,0 l/m 2 min 0 min 470 W/m 43,9 km/h (6 Bft)
05.05.2015 17:38 17,8 C 14,4 C 63 % 1005,1 hPa 0,0 l/m 2 min 0 min 484 W/m 33,5 km/h (5 Bft)
05.05.2015 17:40 17,8 C 14,4 C 64 % 1005,2 hPa 0,0 l/m 2 min 0 min 459 W/m 33,5 km/h (5 Bft)
05.05.2015 17:42 17,8 C 14,4 C 63 % 1005,2 hPa 0,0 l/m 0 min 0 min 165 W/m 35,6 km/h (5 Bft)
05.05.2015 17:44 17,8 C 14,4 C 63 % 1005,4 hPa 0,0 l/m 0 min 0 min 165 W/m 35,6 km/h (5 Bft)
05.05.2015 17:46 17,8 C 14,4 C 62 % 1005,3 hPa 0,0 l/m 2 min 0 min 389 W/m 29,3 km/h (5 Bft)
05.05.2015 17:48 17,8 C 14,4 C 63 % 1005,4 hPa 0,0 l/m 2 min 0 min 555 W/m 35,6 km/h (5 Bft)
05.05.2015 17:50 17,8 C 15,0 C 63 % 1005,4 hPa 0,0 l/m 2 min 0 min 563 W/m 29,3 km/h (5 Bft)
05.05.2015 17:52 17,8 C 14,4 C 63 % 1005,5 hPa 0,0 l/m 0 min 0 min 159 W/m 33,5 km/h (5 Bft)
05.05.2015 17:54 17,8 C 14,4 C 63 % 1005,5 hPa 0,0 l/m 0 min 0 min 183 W/m 27,2 km/h (4 Bft)
05.05.2015 17:56 17,7 C 15,0 C 63 % 1005,6 hPa 0,0 l/m 2 min 0 min 230 W/m 31,4 km/h (5 Bft)
05.05.2015 17:58 17,7 C 14,4 C 63 % 1005,6 hPa 0,0 l/m 0 min 0 min 176 W/m 41,8 km/h (6 Bft)
05.05.2015 18:00 17,7 C 14,4 C 63 % 1005,6 hPa 0,0 l/m 0 min 0 min 126 W/m 33,5 km/h (5 Bft)
05.05.2015 18:02 17,6 C 14,4 C 63 % 1005,7 hPa 0,0 l/m 0 min 0 min 116 W/m 25,1 km/h (4 Bft)
05.05.2015 18:05 17,6 C 14,4 C 64 % 1005,7 hPa 0,0 l/m 0 min 0 min 179 W/m 27,2 km/h (4 Bft)
05.05.2015 18:06 17,5 C 14,4 C 64 % 1005,7 hPa 0,0 l/m 1 min 0 min 243 W/m 31,4 km/h (5 Bft)
05.05.2015 18:08 17,4 C 14,4 C 64 % 1005,7 hPa 0,0 l/m 2 min 0 min 212 W/m 31,4 km/h (5 Bft)
05.05.2015 18:10 17,4 C 14,4 C 64 % 1005,7 hPa 0,0 l/m 2 min 0 min 243 W/m 31,4 km/h (5 Bft)
05.05.2015 18:12 17,4 C 14,4 C 65 % 1005,7 hPa 0,0 l/m 2 min 0 min 387 W/m 27,2 km/h (4 Bft)
05.05.2015 18:14 17,4 C 14,4 C 64 % 1005,7 hPa 0,0 l/m 2 min 0 min 438 W/m 25,1 km/h (4 Bft)
05.05.2015 18:16 17,5 C 14,4 C 64 % 1005,6 hPa 0,0 l/m 2 min 0 min 328 W/m 29,3 km/h (5 Bft)
05.05.2015 18:18 17,4 C 14,4 C 64 % 1005,7 hPa 0,0 l/m 2 min 0 min 399 W/m 25,1 km/h (4 Bft)
05.05.2015 18:20 17,4 C 14,4 C 64 % 1005,7 hPa 0,0 l/m 2 min 0 min 426 W/m 25,1 km/h (4 Bft)
05.05.2015 18:22 17,5 C 14,4 C 65 % 1005,8 hPa 0,0 l/m 2 min 0 min 430 W/m 18,8 km/h (3 Bft)
05.05.2015 18:24 17,5 C 14,4 C 65 % 1005,8 hPa 0,0 l/m 2 min 0 min 413 W/m 31,4 km/h (5 Bft)
05.05.2015 18:26 17,5 C 14,4 C 63 % 1005,8 hPa 0,0 l/m 2 min 0 min 363 W/m 27,2 km/h (4 Bft)
05.05.2015 18:28 17,5 C 14,4 C 62 % 1005,9 hPa 0,0 l/m 2 min 0 min 351 W/m 27,2 km/h (4 Bft)
05.05.2015 18:30 17,6 C 13,9 C 61 % 1005,7 hPa 0,0 l/m 2 min 0 min 348 W/m 29,3 km/h (5 Bft)
05.05.2015 18:32 17,6 C 13,9 C 62 % 1005,8 hPa 0,0 l/m 2 min 0 min 338 W/m 25,1 km/h (4 Bft)
05.05.2015 18:34 17,6 C 13,9 C 61 % 1005,9 hPa 0,0 l/m 2 min 0 min 315 W/m 20,9 km/h (4 Bft)
05.05.2015 18:36 17,6 C 13,9 C 61 % 1005,9 hPa 0,0 l/m 2 min 0 min 336 W/m 29,3 km/h (5 Bft)
05.05.2015 18:38 17,6 C 13,9 C 60 % 1005,9 hPa 0,0 l/m 2 min 0 min 319 W/m 31,4 km/h (5 Bft)
05.05.2015 18:40 17,6 C 13,9 C 60 % 1005,9 hPa 0,0 l/m 2 min 0 min 288 W/m 18,8 km/h (3 Bft)
05.05.2015 18:42 17,6 C 13,9 C 60 % 1006,0 hPa 0,0 l/m 2 min 0 min 330 W/m 20,9 km/h (4 Bft)
05.05.2015 18:44 17,6 C 13,9 C 60 % 1006,0 hPa 0,0 l/m 2 min 0 min 349 W/m 23,0 km/h (4 Bft)
05.05.2015 18:46 17,6 C 13,9 C 60 % 1006,1 hPa 0,0 l/m 2 min 0 min 312 W/m 29,3 km/h (5 Bft)
05.05.2015 18:48 17,6 C 13,9 C 60 % 1006,1 hPa 0,0 l/m 2 min 0 min 315 W/m 23,0 km/h (4 Bft)
05.05.2015 18:50 17,6 C 13,9 C 59 % 1006,1 hPa 0,0 l/m 2 min 0 min 259 W/m 25,1 km/h (4 Bft)
05.05.2015 18:54 17,6 C 13,9 C 57 % 1006,1 hPa 0,0 l/m 2 min 0 min 275 W/m 33,5 km/h (5 Bft)
05.05.2015 18:56 17,6 C 13,9 C 57 % 1006,1 hPa 0,0 l/m 2 min 0 min 273 W/m 18,8 km/h (3 Bft)
05.05.2015 18:58 17,6 C 13,9 C 57 % 1006,1 hPa 0,0 l/m 2 min 0 min 266 W/m 16,7 km/h (3 Bft)
05.05.2015 19:00 17,6 C 13,9 C 57 % 1006,1 hPa 0,0 l/m 2 min 0 min 276 W/m 18,8 km/h (3 Bft)
05.05.2015 19:02 17,6 C 13,9 C 58 % 1006,1 hPa 0,0 l/m 2 min 0 min 266 W/m 18,8 km/h (3 Bft)
05.05.2015 19:04 17,6 C 13,9 C 58 % 1006,1 hPa 0,0 l/m 2 min 0 min 265 W/m 16,7 km/h (3 Bft)
05.05.2015 19:06 17,6 C 13,9 C 57 % 1006,2 hPa 0,0 l/m 2 min 0 min 278 W/m 18,8 km/h (3 Bft)
05.05.2015 19:08 17,6 C 13,9 C 58 % 1006,2 hPa 0,0 l/m 2 min 0 min 271 W/m 20,9 km/h (4 Bft)
05.05.2015 19:10 17,6 C 13,9 C 58 % 1006,2 hPa 0,0 l/m 2 min 0 min 252 W/m 27,2 km/h (4 Bft)
05.05.2015 19:12 17,6 C 13,9 C 57 % 1006,2 hPa 0,0 l/m 2 min 0 min 253 W/m 20,9 km/h (4 Bft)
05.05.2015 19:14 17,5 C 13,9 C 57 % 1006,3 hPa 0,0 l/m 2 min 0 min 228 W/m 18,8 km/h (3 Bft)
05.05.2015 19:16 17,5 C 13,9 C 58 % 1006,3 hPa 0,0 l/m 2 min 0 min 222 W/m 16,7 km/h (3 Bft)
05.05.2015 19:18 17,5 C 13,9 C 58 % 1006,3 hPa 0,0 l/m 2 min 0 min 210 W/m 27,2 km/h (4 Bft)
05.05.2015 19:20 17,5 C 13,9 C 58 % 1006,4 hPa 0,0 l/m 2 min 0 min 195 W/m 31,4 km/h (5 Bft)
05.05.2015 19:22 17,4 C 13,9 C 58 % 1006,3 hPa 0,0 l/m 2 min 0 min 184 W/m 23,0 km/h (4 Bft)
05.05.2015 19:24 17,4 C 13,9 C 59 % 1006,4 hPa 0,0 l/m 2 min 0 min 149 W/m 18,8 km/h (3 Bft)
05.05.2015 19:26 17,4 C 13,9 C 59 % 1006,3 hPa 0,0 l/m 2 min 0 min 119 W/m 18,8 km/h (3 Bft)
05.05.2015 19:28 17,3 C 13,3 C 60 % 1006,5 hPa 0,0 l/m 0 min 0 min 71 W/m 23,0 km/h (4 Bft)
05.05.2015 19:30 17,3 C 13,3 C 60 % 1006,4 hPa 0,0 l/m 0 min 0 min 71 W/m 16,7 km/h (3 Bft)
05.05.2015 19:32 17,2 C 13,3 C 60 % 1006,5 hPa 0,0 l/m 2 min 0 min 114 W/m 23,0 km/h (4 Bft)
05.05.2015 19:34 17,2 C 13,3 C 59 % 1006,5 hPa 0,0 l/m 0 min 0 min 97 W/m 23,0 km/h (4 Bft)
05.05.2015 19:36 17,1 C 13,3 C 60 % 1006,4 hPa 0,0 l/m 0 min 0 min 72 W/m 18,8 km/h (3 Bft)
05.05.2015 19:38 17,1 C 13,3 C 60 % 1006,5 hPa 0,0 l/m 2 min 0 min 108 W/m 18,8 km/h (3 Bft)
05.05.2015 19:40 17,0 C 13,3 C 61 % 1006,5 hPa 0,0 l/m 2 min 0 min 113 W/m 16,7 km/h (3 Bft)
05.05.2015 19:42 16,9 C 13,3 C 61 % 1006,5 hPa 0,0 l/m 2 min 0 min 106 W/m 14,6 km/h (3 Bft)
05.05.2015 19:44 16,9 C 13,3 C 61 % 1006,5 hPa 0,0 l/m 0 min 0 min 85 W/m 16,7 km/h (3 Bft)
05.05.2015 19:46 16,8 C 13,3 C 61 % 1006,5 hPa 0,0 l/m 0 min 0 min 84 W/m 18,8 km/h (3 Bft)
05.05.2015 19:48 16,8 C 13,3 C 61 % 1006,5 hPa 0,0 l/m 0 min 0 min 54 W/m 25,1 km/h (4 Bft)
05.05.2015 19:50 16,7 C 13,3 C 60 % 1006,6 hPa 0,0 l/m 2 min 0 min 86 W/m 20,9 km/h (4 Bft)
05.05.2015 19:52 16,7 C 13,3 C 61 % 1006,7 hPa 0,0 l/m 0 min 0 min 52 W/m 25,1 km/h (4 Bft)
05.05.2015 19:54 16,6 C 13,3 C 61 % 1006,7 hPa 0,0 l/m 0 min 0 min 44 W/m 23,0 km/h (4 Bft)
05.05.2015 19:56 16,6 C 13,3 C 62 % 1006,7 hPa 0,0 l/m 0 min 0 min 58 W/m 14,6 km/h (3 Bft)
05.05.2015 19:58 16,5 C 12,8 C 62 % 1006,8 hPa 0,0 l/m 0 min 0 min 54 W/m 18,8 km/h (3 Bft)
05.05.2015 20:00 16,4 C 12,8 C 62 % 1006,9 hPa 0,0 l/m 0 min 0 min 37 W/m 16,7 km/h (3 Bft)
05.05.2015 20:02 16,4 C 12,8 C 62 % 1006,9 hPa 0,0 l/m 0 min 0 min 35 W/m 12,6 km/h (3 Bft)
05.05.2015 20:04 16,3 C 12,8 C 62 % 1007,0 hPa 0,0 l/m 0 min 0 min 46 W/m 14,6 km/h (3 Bft)
05.05.2015 20:06 16,3 C 12,8 C 62 % 1007,0 hPa 0,0 l/m 0 min 0 min 41 W/m 18,8 km/h (3 Bft)
05.05.2015 20:08 16,2 C 12,8 C 62 % 1007,0 hPa 0,0 l/m 0 min 0 min 31 W/m 14,6 km/h (3 Bft)
05.05.2015 20:10 16,2 C 12,8 C 62 % 1007,0 hPa 0,0 l/m 0 min 0 min 32 W/m 14,6 km/h (3 Bft)
05.05.2015 20:12 16,1 C 12,8 C 63 % 1007,0 hPa 0,0 l/m 0 min 0 min 38 W/m 16,7 km/h (3 Bft)
05.05.2015 20:14 16,1 C 12,8 C 63 % 1007,0 hPa 0,0 l/m 0 min 0 min 32 W/m 14,6 km/h (3 Bft)
05.05.2015 20:16 16,0 C 12,8 C 63 % 1007,1 hPa 0,0 l/m 0 min 0 min 30 W/m 12,6 km/h (3 Bft)
05.05.2015 20:18 16,0 C 12,8 C 63 % 1007,1 hPa 0,0 l/m 0 min 0 min 30 W/m 14,6 km/h (3 Bft)
05.05.2015 20:20 15,9 C 12,8 C 63 % 1007,1 hPa 0,0 l/m 0 min 0 min 31 W/m 14,6 km/h (3 Bft)
05.05.2015 20:22 15,9 C 12,8 C 63 % 1007,0 hPa 0,0 l/m 0 min 0 min 33 W/m 12,6 km/h (3 Bft)
05.05.2015 20:24 15,8 C 12,8 C 63 % 1007,2 hPa 0,0 l/m 0 min 0 min 32 W/m 10,5 km/h (2 Bft)
05.05.2015 20:26 15,8 C 12,8 C 63 % 1007,3 hPa 0,0 l/m 0 min 0 min 30 W/m 8,4 km/h (2 Bft)
05.05.2015 20:28 15,8 C 12,8 C 63 % 1007,3 hPa 0,0 l/m 0 min 0 min 30 W/m 8,4 km/h (2 Bft)
05.05.2015 20:30 15,7 C 12,8 C 63 % 1007,3 hPa 0,0 l/m 0 min 0 min 28 W/m 6,3 km/h (2 Bft)
05.05.2015 20:32 15,7 C 12,8 C 64 % 1007,3 hPa 0,0 l/m 0 min 0 min 26 W/m 8,4 km/h (2 Bft)
05.05.2015 20:34 15,7 C 12,8 C 64 % 1007,3 hPa 0,0 l/m 0 min 0 min 26 W/m 8,4 km/h (2 Bft)
05.05.2015 20:36 15,6 C 12,8 C 64 % 1007,4 hPa 0,0 l/m 2 min 0 min 25 W/m 8,4 km/h (2 Bft)
05.05.2015 20:38 15,6 C 12,8 C 64 % 1007,4 hPa 0,0 l/m 2 min 0 min 23 W/m 4,2 km/h (1 Bft)
05.05.2015 20:40 15,6 C 12,2 C 65 % 1007,4 hPa 0,0 l/m 2 min 0 min 21 W/m 6,3 km/h (2 Bft)
05.05.2015 20:42 15,6 C 12,2 C 65 % 1007,4 hPa 0,0 l/m 2 min 0 min 20 W/m 4,2 km/h (1 Bft)
05.05.2015 20:44 15,5 C 12,2 C 65 % 1007,4 hPa 0,0 l/m 0 min 0 min 18 W/m 8,4 km/h (2 Bft)
05.05.2015 20:46 15,4 C 12,2 C 65 % 1007,4 hPa 0,0 l/m 0 min 0 min 17 W/m 6,3 km/h (2 Bft)
05.05.2015 20:48 15,4 C 12,2 C 65 % 1007,4 hPa 0,0 l/m 0 min 0 min 16 W/m 6,3 km/h (2 Bft)
05.05.2015 20:50 15,4 C 12,2 C 65 % 1007,4 hPa 0,0 l/m 0 min 0 min 13 W/m 8,4 km/h (2 Bft)
05.05.2015 20:52 15,3 C 12,2 C 65 % 1007,5 hPa 0,0 l/m 0 min 0 min 12 W/m 8,4 km/h (2 Bft)
05.05.2015 20:54 15,3 C 12,2 C 65 % 1007,5 hPa 0,0 l/m 0 min 0 min 11 W/m 8,4 km/h (2 Bft)
05.05.2015 20:56 15,2 C 12,2 C 65 % 1007,5 hPa 0,0 l/m 0 min 0 min 10 W/m 12,6 km/h (3 Bft)
05.05.2015 20:58 15,1 C 12,2 C 64 % 1007,6 hPa 0,0 l/m 0 min 0 min 9 W/m 10,5 km/h (2 Bft)
05.05.2015 21:00 15,1 C 12,2 C 64 % 1007,6 hPa 0,0 l/m 0 min 0 min 9 W/m 10,5 km/h (2 Bft)
05.05.2015 21:02 15,0 C 12,2 C 64 % 1007,6 hPa 0,0 l/m 0 min 0 min 7 W/m 12,6 km/h (3 Bft)
05.05.2015 21:04 15,0 C 12,2 C 64 % 1007,7 hPa 0,0 l/m 0 min 0 min 7 W/m 10,5 km/h (2 Bft)
05.05.2015 21:06 14,9 C 12,2 C 64 % 1007,7 hPa 0,0 l/m 0 min 0 min 5 W/m 12,6 km/h (3 Bft)
05.05.2015 21:08 14,9 C 12,2 C 63 % 1007,7 hPa 0,0 l/m 0 min 0 min 5 W/m 8,4 km/h (2 Bft)
05.05.2015 21:10 14,8 C 12,2 C 63 % 1007,8 hPa 0,0 l/m 0 min 0 min 5 W/m 8,4 km/h (2 Bft)
05.05.2015 21:12 14,8 C 12,2 C 64 % 1007,8 hPa 0,0 l/m 0 min 0 min 0 W/m 10,5 km/h (2 Bft)
05.05.2015 21:14 14,8 C 12,2 C 63 % 1007,8 hPa 0,0 l/m 0 min 0 min 0 W/m 10,5 km/h (2 Bft)
05.05.2015 21:16 14,7 C 12,2 C 64 % 1007,8 hPa 0,0 l/m 0 min 0 min 0 W/m 8,4 km/h (2 Bft)
05.05.2015 21:18 14,7 C 11,7 C 64 % 1007,8 hPa 0,0 l/m 0 min 0 min 0 W/m 8,4 km/h (2 Bft)
05.05.2015 21:20 14,7 C 11,7 C 64 % 1007,8 hPa 0,0 l/m 0 min 0 min 0 W/m 6,3 km/h (2 Bft)
05.05.2015 21:22 14,7 C 11,7 C 64 % 1007,9 hPa 0,0 l/m 0 min 0 min 0 W/m 8,4 km/h (2 Bft)
05.05.2015 21:24 14,7 C 11,7 C 64 % 1007,9 hPa 0,0 l/m 0 min 0 min 0 W/m 10,5 km/h (2 Bft)
05.05.2015 21:26 14,6 C 11,7 C 65 % 1007,9 hPa 0,0 l/m 0 min 0 min 0 W/m 10,5 km/h (2 Bft)
05.05.2015 21:28 14,6 C 11,7 C 65 % 1007,9 hPa 0,0 l/m 0 min 0 min 0 W/m 8,4 km/h (2 Bft)
05.05.2015 21:30 14,6 C 11,7 C 65 % 1008,0 hPa 0,0 l/m 0 min 0 min 0 W/m 12,6 km/h (3 Bft)
05.05.2015 21:32 14,5 C 11,7 C 66 % 1007,9 hPa 0,0 l/m 0 min 0 min 0 W/m 8,4 km/h (2 Bft)
05.05.2015 21:34 14,4 C 11,7 C 66 % 1008,0 hPa 0,0 l/m 0 min 0 min 0 W/m 4,2 km/h (1 Bft)
05.05.2015 21:36 14,4 C 11,7 C 66 % 1008,0 hPa 0,0 l/m 0 min 0 min 0 W/m 6,3 km/h (2 Bft)
05.05.2015 21:38 14,4 C 11,7 C 66 % 1008,0 hPa 0,0 l/m 0 min 0 min 0 W/m 6,3 km/h (2 Bft)
05.05.2015 21:40 14,3 C 11,7 C 67 % 1008,0 hPa 0,0 l/m 0 min 0 min 0 W/m 8,4 km/h (2 Bft)
05.05.2015 21:42 14,3 C 11,7 C 67 % 1008,0 hPa 0,0 l/m 0 min 0 min 0 W/m 6,3 km/h (2 Bft)
05.05.2015 21:44 14,2 C 11,1 C 67 % 1008,1 hPa 0,0 l/m 0 min 0 min 0 W/m 8,4 km/h (2 Bft)
05.05.2015 21:46 14,2 C 11,1 C 67 % 1008,0 hPa 0,0 l/m 0 min 0 min 0 W/m 8,4 km/h (2 Bft)
05.05.2015 21:48 14,2 C 11,1 C 67 % 1008,1 hPa 0,0 l/m 0 min 0 min 0 W/m 6,3 km/h (2 Bft)
05.05.2015 21:50 14,2 C 11,1 C 67 % 1008,1 hPa 0,0 l/m 0 min 0 min 0 W/m 8,4 km/h (2 Bft)
05.05.2015 21:52 14,2 C 11,1 C 68 % 1008,1 hPa 0,0 l/m 0 min 0 min 0 W/m 8,4 km/h (2 Bft)
05.05.2015 21:54 14,1 C 11,1 C 68 % 1008,1 hPa 0,0 l/m 0 min 0 min 0 W/m 4,2 km/h (1 Bft)
05.05.2015 21:56 14,0 C 11,1 C 68 % 1008,1 hPa 0,0 l/m 0 min 0 min 0 W/m 6,3 km/h (2 Bft)
05.05.2015 21:58 13,9 C 11,1 C 69 % 1008,1 hPa 0,0 l/m 0 min 0 min 0 W/m 6,3 km/h (2 Bft)
05.05.2015 22:00 13,9 C 11,1 C 69 % 1008,1 hPa 0,0 l/m 0 min 0 min 0 W/m 6,3 km/h (2 Bft)
05.05.2015 22:02 13,8 C 11,1 C 69 % 1008,1 hPa 0,0 l/m 0 min 0 min 0 W/m 4,2 km/h (1 Bft)
05.05.2015 22:04 13,8 C 11,1 C 69 % 1008,1 hPa 0,0 l/m 0 min 0 min 0 W/m 10,5 km/h (2 Bft)
05.05.2015 22:06 13,7 C 11,1 C 69 % 1008,1 hPa 0,0 l/m 0 min 0 min 0 W/m 8,4 km/h (2 Bft)
05.05.2015 22:08 13,7 C 11,1 C 69 % 1008,1 hPa 0,0 l/m 0 min 0 min 0 W/m 6,3 km/h (2 Bft)
05.05.2015 22:10 13,6 C 11,1 C 70 % 1008,1 hPa 0,0 l/m 0 min 0 min 0 W/m 8,4 km/h (2 Bft)
05.05.2015 22:12 13,5 C 11,1 C 70 % 1008,1 hPa 0,0 l/m 0 min 0 min 0 W/m 6,3 km/h (2 Bft)
05.05.2015 22:14 13,4 C 11,1 C 70 % 1008,1 hPa 0,0 l/m 0 min 0 min 0 W/m 6,3 km/h (2 Bft)
05.05.2015 22:16 13,4 C 11,1 C 70 % 1008,1 hPa 0,0 l/m 0 min 0 min 0 W/m 4,2 km/h (1 Bft)
05.05.2015 22:18 13,4 C 11,1 C 70 % 1008,1 hPa 0,0 l/m 0 min 0 min 0 W/m 6,3 km/h (2 Bft)
05.05.2015 22:20 13,3 C 11,1 C 71 % 1008,1 hPa 0,0 l/m 0 min 0 min 0 W/m 4,2 km/h (1 Bft)
05.05.2015 22:22 13,2 C 11,1 C 71 % 1008,1 hPa 0,0 l/m 0 min 0 min 0 W/m 8,4 km/h (2 Bft)
05.05.2015 22:24 13,2 C 11,1 C 71 % 1008,1 hPa 0,0 l/m 0 min 0 min 0 W/m 4,2 km/h (1 Bft)
05.05.2015 22:26 13,2 C 10,6 C 71 % 1008,1 hPa 0,0 l/m 0 min 0 min 0 W/m 6,3 km/h (2 Bft)
05.05.2015 22:28 13,1 C 10,6 C 71 % 1008,2 hPa 0,0 l/m 0 min 0 min 0 W/m 6,3 km/h (2 Bft)
05.05.2015 22:30 13,1 C 10,6 C 72 % 1008,1 hPa 0,0 l/m 0 min 0 min 0 W/m 6,3 km/h (2 Bft)
05.05.2015 22:32 13,0 C 10,6 C 72 % 1008,1 hPa 0,0 l/m 0 min 0 min 0 W/m 6,3 km/h (2 Bft)
05.05.2015 22:34 12,9 C 10,6 C 72 % 1008,1 hPa 0,0 l/m 0 min 0 min 0 W/m 6,3 km/h (2 Bft)
05.05.2015 22:36 12,9 C 10,6 C 73 % 1008,2 hPa 0,0 l/m 0 min 0 min 0 W/m 6,3 km/h (2 Bft)
05.05.2015 22:38 12,9 C 10,6 C 73 % 1008,2 hPa 0,0 l/m 0 min 0 min 0 W/m 6,3 km/h (2 Bft)
05.05.2015 22:40 12,8 C 10,6 C 73 % 1008,2 hPa 0,0 l/m 0 min 0 min 0 W/m 8,4 km/h (2 Bft)
05.05.2015 22:42 12,8 C 10,6 C 73 % 1008,2 hPa 0,0 l/m 0 min 0 min 0 W/m 8,4 km/h (2 Bft)
05.05.2015 22:44 12,7 C 10,6 C 74 % 1008,2 hPa 0,0 l/m 0 min 0 min 0 W/m 6,3 km/h (2 Bft)
05.05.2015 22:46 12,7 C 10,6 C 74 % 1008,2 hPa 0,0 l/m 0 min 0 min 0 W/m 8,4 km/h (2 Bft)
05.05.2015 22:48 12,7 C 10,6 C 74 % 1008,2 hPa 0,0 l/m 0 min 0 min 0 W/m 8,4 km/h (2 Bft)
05.05.2015 22:50 12,6 C 10,6 C 74 % 1008,2 hPa 0,0 l/m 0 min 0 min 0 W/m 8,4 km/h (2 Bft)
05.05.2015 22:52 12,6 C 10,6 C 74 % 1008,3 hPa 0,0 l/m 0 min 0 min 0 W/m 10,5 km/h (2 Bft)
05.05.2015 22:54 12,6 C 10,6 C 74 % 1008,2 hPa 0,0 l/m 0 min 0 min 0 W/m 12,6 km/h (3 Bft)
05.05.2015 22:56 12,5 C 10,6 C 75 % 1008,2 hPa 0,0 l/m 0 min 0 min 0 W/m 10,5 km/h (2 Bft)
05.05.2015 22:58 12,4 C 10,6 C 75 % 1008,2 hPa 0,0 l/m 0 min 0 min 0 W/m 8,4 km/h (2 Bft)
05.05.2015 23:00 12,4 C 10,6 C 75 % 1008,3 hPa 0,0 l/m 0 min 0 min 0 W/m 10,5 km/h (2 Bft)
05.05.2015 23:02 12,4 C 10,6 C 75 % 1008,3 hPa 0,0 l/m 0 min 0 min 0 W/m 10,5 km/h (2 Bft)
05.05.2015 23:04 12,4 C 10,6 C 75 % 1008,3 hPa 0,0 l/m 0 min 0 min 0 W/m 8,4 km/h (2 Bft)
05.05.2015 23:06 12,3 C 10,6 C 75 % 1008,3 hPa 0,0 l/m 0 min 0 min 0 W/m 10,5 km/h (2 Bft)
05.05.2015 23:08 12,3 C 10,6 C 75 % 1008,4 hPa 0,0 l/m 0 min 0 min 0 W/m 12,6 km/h (3 Bft)
05.05.2015 23:10 12,3 C 10,6 C 76 % 1008,4 hPa 0,0 l/m 0 min 0 min 0 W/m 12,6 km/h (3 Bft)
05.05.2015 23:12 12,2 C 10,6 C 76 % 1008,4 hPa 0,0 l/m 0 min 0 min 0 W/m 12,6 km/h (3 Bft)
05.05.2015 23:14 12,2 C 10,6 C 76 % 1008,4 hPa 0,0 l/m 0 min 0 min 0 W/m 10,5 km/h (2 Bft)
05.05.2015 23:16 12,2 C 10,6 C 77 % 1008,5 hPa 0,0 l/m 0 min 0 min 0 W/m 12,6 km/h (3 Bft)
05.05.2015 23:18 12,2 C 10,6 C 77 % 1008,4 hPa 0,0 l/m 0 min 0 min 0 W/m 10,5 km/h (2 Bft)
05.05.2015 23:20 12,2 C 11,1 C 77 % 1008,4 hPa 0,0 l/m 0 min 0 min 0 W/m 10,5 km/h (2 Bft)
05.05.2015 23:22 12,1 C 11,1 C 77 % 1008,5 hPa 0,0 l/m 0 min 0 min 0 W/m 12,6 km/h (3 Bft)
05.05.2015 23:24 12,1 C 11,1 C 77 % 1008,4 hPa 0,0 l/m 0 min 0 min 0 W/m 12,6 km/h (3 Bft)
05.05.2015 23:26 12,1 C 11,1 C 78 % 1008,5 hPa 0,0 l/m 0 min 0 min 0 W/m 12,6 km/h (3 Bft)
05.05.2015 23:28 12,1 C 11,1 C 78 % 1008,4 hPa 0,0 l/m 0 min 0 min 0 W/m 12,6 km/h (3 Bft)
05.05.2015 23:30 12,1 C 11,1 C 78 % 1008,4 hPa 0,0 l/m 0 min 0 min 0 W/m 10,5 km/h (2 Bft)
05.05.2015 23:32 12,1 C 11,1 C 78 % 1008,4 hPa 0,0 l/m 0 min 0 min 0 W/m 8,4 km/h (2 Bft)
05.05.2015 23:34 12,1 C 11,1 C 78 % 1008,4 hPa 0,0 l/m 0 min 0 min 0 W/m 12,6 km/h (3 Bft)
05.05.2015 23:36 12,1 C 11,1 C 78 % 1008,4 hPa 0,0 l/m 0 min 0 min 0 W/m 12,6 km/h (3 Bft)
05.05.2015 23:38 12,1 C 11,1 C 78 % 1008,4 hPa 0,0 l/m 0 min 0 min 0 W/m 12,6 km/h (3 Bft)
05.05.2015 23:40 12,1 C 11,1 C 79 % 1008,4 hPa 0,0 l/m 0 min 0 min 0 W/m 10,5 km/h (2 Bft)
05.05.2015 23:42 12,1 C 11,1 C 79 % 1008,3 hPa 0,0 l/m 0 min 0 min 0 W/m 10,5 km/h (2 Bft)
05.05.2015 23:44 12,1 C 11,1 C 79 % 1008,4 hPa 0,0 l/m 0 min 0 min 0 W/m 10,5 km/h (2 Bft)
05.05.2015 23:46 12,1 C 11,1 C 79 % 1008,4 hPa 0,0 l/m 0 min 0 min 0 W/m 10,5 km/h (2 Bft)
05.05.2015 23:48 12,1 C 11,1 C 79 % 1008,4 hPa 0,0 l/m 0 min 0 min 0 W/m 12,6 km/h (3 Bft)
05.05.2015 23:50 12,1 C 11,1 C 79 % 1008,4 hPa 0,0 l/m 0 min 0 min 0 W/m 10,5 km/h (2 Bft)
05.05.2015 23:52 12,1 C 11,1 C 78 % 1008,4 hPa 0,0 l/m 0 min 0 min 0 W/m 12,6 km/h (3 Bft)
05.05.2015 23:54 12,1 C 11,1 C 78 % 1008,4 hPa 0,0 l/m 0 min 0 min 0 W/m 8,4 km/h (2 Bft)
05.05.2015 23:56 12,1 C 11,1 C 78 % 1008,4 hPa 0,0 l/m 0 min 0 min 0 W/m 12,6 km/h (3 Bft)
05.05.2015 23:58 12,1 C 11,1 C 78 % 1008,4 hPa 0,0 l/m 0 min 0 min 0 W/m 16,7 km/h (3 Bft)
_ Min-Zeit 23:20 22:26 13:22 05:06 - - - - 20:38
Minimum _ 12,1 C 10,6 C 57 % 995,2 hPa - - - - 4,2 km/h (1 Bft)
_ Max-Zeit 12:46 12:44 04:16 23:16 00:20 06:20 00:06 13:52 14:48
Maximum _ 24,9 C 18,9 C 97 % 1008,5 hPa 0,2 l/m 2 min 2 min 1072 W/m 81,6 km/h
W-SW (9 Bft)
Durchschnitt _ 17,2 C 14,2 C 80 % 1000,3 hPa #4,6 l/m #5:43 h #4:12 h 268 W/m 25,4 km/h (4 Bft)
© 2015 W. Hausmann